<?xml version="1.0" encoding="UTF-8" standalone="no" ?>
<gpx xmlns="http://www.topografix.com/GPX/1/1" xmlns:xsi="http://www.w3.org/2001/XMLSchema-instance" xsi:schemaLocation="http://www.topografix.com/GPX/1/1 http://www.topografix.com/GPX/1/1/gpx.xsd" version="1.1" creator="VisuGPX - https://www.visugpx.com">
  <metadata>
    <name>2015-05-10 - Géocaching</name>
    <desc><![CDATA[2015-05-10 - Géocaching]]></desc>
  </metadata>
  <trk>
    <name><![CDATA[2015-05-10 18:07:37]]></name>
    <trkseg>
      <trkpt lat="50.37411" lon="3.00055">
        <ele>33.3</ele>
        <time>2015-05-10T12:46:37Z</time>
      </trkpt>
      <trkpt lat="50.37411" lon="3.00055">
        <ele>33.3</ele>
        <time>2015-05-10T12:46:38Z</time>
      </trkpt>
      <trkpt lat="50.37408" lon="3.00061">
        <ele>33.3</ele>
        <time>2015-05-10T12:47:01Z</time>
      </trkpt>
      <trkpt lat="50.37408" lon="3.00059">
        <ele>33.3</ele>
        <time>2015-05-10T12:47:14Z</time>
      </trkpt>
      <trkpt lat="50.37408" lon="3.00058">
        <ele>33.3</ele>
        <time>2015-05-10T12:47:28Z</time>
      </trkpt>
      <trkpt lat="50.37411" lon="3.00058">
        <ele>33.3</ele>
        <time>2015-05-10T12:47:39Z</time>
      </trkpt>
      <trkpt lat="50.37411" lon="3.00057">
        <ele>33.3</ele>
        <time>2015-05-10T12:48:00Z</time>
      </trkpt>
      <trkpt lat="50.37409" lon="3.0006">
        <ele>33.3</ele>
        <time>2015-05-10T12:48:36Z</time>
      </trkpt>
      <trkpt lat="50.37409" lon="3.0006">
        <ele>33.3</ele>
        <time>2015-05-10T12:48:50Z</time>
      </trkpt>
      <trkpt lat="50.3741" lon="3.0006">
        <ele>33.3</ele>
        <time>2015-05-10T12:49:04Z</time>
      </trkpt>
      <trkpt lat="50.37408" lon="3.00059">
        <ele>33.3</ele>
        <time>2015-05-10T12:49:24Z</time>
      </trkpt>
      <trkpt lat="50.37407" lon="3.00061">
        <ele>33.3</ele>
        <time>2015-05-10T12:49:43Z</time>
      </trkpt>
      <trkpt lat="50.37409" lon="3.00061">
        <ele>33.3</ele>
        <time>2015-05-10T12:49:59Z</time>
      </trkpt>
      <trkpt lat="50.37409" lon="3.00061">
        <ele>33.3</ele>
        <time>2015-05-10T12:50:25Z</time>
      </trkpt>
      <trkpt lat="50.37408" lon="3.00061">
        <ele>33.3</ele>
        <time>2015-05-10T12:50:51Z</time>
      </trkpt>
      <trkpt lat="50.37409" lon="3.00062">
        <ele>33.3</ele>
        <time>2015-05-10T12:51:21Z</time>
      </trkpt>
      <trkpt lat="50.37406" lon="3.00061">
        <ele>33.3</ele>
        <time>2015-05-10T12:51:32Z</time>
      </trkpt>
      <trkpt lat="50.37398" lon="3.00059">
        <ele>33.3</ele>
        <time>2015-05-10T12:51:41Z</time>
      </trkpt>
      <trkpt lat="50.37398" lon="3.00055">
        <ele>31.86</ele>
        <time>2015-05-10T12:51:43Z</time>
      </trkpt>
      <trkpt lat="50.37391" lon="3.00016">
        <ele>33.3</ele>
        <time>2015-05-10T12:52:05Z</time>
      </trkpt>
      <trkpt lat="50.37388" lon="3.00002">
        <ele>33.3</ele>
        <time>2015-05-10T12:52:13Z</time>
      </trkpt>
      <trkpt lat="50.37387" lon="2.99992">
        <ele>33.3</ele>
        <time>2015-05-10T12:52:18Z</time>
      </trkpt>
      <trkpt lat="50.37386" lon="2.99983">
        <ele>33.3</ele>
        <time>2015-05-10T12:52:22Z</time>
      </trkpt>
      <trkpt lat="50.37378" lon="2.99954">
        <ele>33.3</ele>
        <time>2015-05-10T12:52:39Z</time>
      </trkpt>
      <trkpt lat="50.37378" lon="2.99953">
        <ele>33.3</ele>
        <time>2015-05-10T12:52:40Z</time>
      </trkpt>
      <trkpt lat="50.37376" lon="2.99944">
        <ele>31.86</ele>
        <time>2015-05-10T12:52:44Z</time>
      </trkpt>
      <trkpt lat="50.37376" lon="2.99938">
        <ele>31.86</ele>
        <time>2015-05-10T12:52:47Z</time>
      </trkpt>
      <trkpt lat="50.37374" lon="2.99921">
        <ele>31.86</ele>
        <time>2015-05-10T12:52:56Z</time>
      </trkpt>
      <trkpt lat="50.37371" lon="2.9991">
        <ele>31.86</ele>
        <time>2015-05-10T12:53:02Z</time>
      </trkpt>
      <trkpt lat="50.37366" lon="2.99903">
        <ele>31.86</ele>
        <time>2015-05-10T12:53:07Z</time>
      </trkpt>
      <trkpt lat="50.37357" lon="2.99902">
        <ele>31.86</ele>
        <time>2015-05-10T12:53:14Z</time>
      </trkpt>
      <trkpt lat="50.37354" lon="2.99906">
        <ele>31.86</ele>
        <time>2015-05-10T12:53:18Z</time>
      </trkpt>
      <trkpt lat="50.37327" lon="2.99922">
        <ele>31.38</ele>
        <time>2015-05-10T12:53:41Z</time>
      </trkpt>
      <trkpt lat="50.37294" lon="2.99934">
        <ele>30.42</ele>
        <time>2015-05-10T12:54:07Z</time>
      </trkpt>
      <trkpt lat="50.3729" lon="2.99927">
        <ele>30.42</ele>
        <time>2015-05-10T12:54:12Z</time>
      </trkpt>
      <trkpt lat="50.37293" lon="2.99923">
        <ele>29.94</ele>
        <time>2015-05-10T12:54:28Z</time>
      </trkpt>
      <trkpt lat="50.37293" lon="2.99921">
        <ele>29.94</ele>
        <time>2015-05-10T12:54:38Z</time>
      </trkpt>
      <trkpt lat="50.37294" lon="2.99922">
        <ele>29.94</ele>
        <time>2015-05-10T12:55:04Z</time>
      </trkpt>
      <trkpt lat="50.37293" lon="2.99925">
        <ele>29.46</ele>
        <time>2015-05-10T12:55:36Z</time>
      </trkpt>
      <trkpt lat="50.37295" lon="2.99922">
        <ele>29.46</ele>
        <time>2015-05-10T12:56:12Z</time>
      </trkpt>
      <trkpt lat="50.37295" lon="2.99919">
        <ele>29.46</ele>
        <time>2015-05-10T12:56:28Z</time>
      </trkpt>
      <trkpt lat="50.37297" lon="2.99922">
        <ele>29.46</ele>
        <time>2015-05-10T12:56:47Z</time>
      </trkpt>
      <trkpt lat="50.37297" lon="2.99924">
        <ele>29.94</ele>
        <time>2015-05-10T12:57:17Z</time>
      </trkpt>
      <trkpt lat="50.37295" lon="2.99924">
        <ele>29.94</ele>
        <time>2015-05-10T12:57:38Z</time>
      </trkpt>
      <trkpt lat="50.37293" lon="2.99921">
        <ele>29.94</ele>
        <time>2015-05-10T12:58:00Z</time>
      </trkpt>
      <trkpt lat="50.37291" lon="2.9992">
        <ele>29.94</ele>
        <time>2015-05-10T12:58:34Z</time>
      </trkpt>
      <trkpt lat="50.37293" lon="2.99916">
        <ele>29.94</ele>
        <time>2015-05-10T12:59:12Z</time>
      </trkpt>
      <trkpt lat="50.37292" lon="2.99919">
        <ele>29.94</ele>
        <time>2015-05-10T12:59:49Z</time>
      </trkpt>
      <trkpt lat="50.3729" lon="2.99918">
        <ele>29.94</ele>
        <time>2015-05-10T12:59:51Z</time>
      </trkpt>
      <trkpt lat="50.37284" lon="2.99914">
        <ele>29.94</ele>
        <time>2015-05-10T13:00:05Z</time>
      </trkpt>
      <trkpt lat="50.37285" lon="2.99913">
        <ele>29.46</ele>
        <time>2015-05-10T13:00:28Z</time>
      </trkpt>
      <trkpt lat="50.37283" lon="2.99907">
        <ele>30.9</ele>
        <time>2015-05-10T13:00:42Z</time>
      </trkpt>
      <trkpt lat="50.37275" lon="2.99878">
        <ele>30.9</ele>
        <time>2015-05-10T13:00:59Z</time>
      </trkpt>
      <trkpt lat="50.37263" lon="2.99831">
        <ele>29.94</ele>
        <time>2015-05-10T13:01:24Z</time>
      </trkpt>
      <trkpt lat="50.3726" lon="2.99821">
        <ele>29.94</ele>
        <time>2015-05-10T13:01:30Z</time>
      </trkpt>
      <trkpt lat="50.37255" lon="2.998">
        <ele>29.94</ele>
        <time>2015-05-10T13:01:42Z</time>
      </trkpt>
      <trkpt lat="50.37247" lon="2.99778">
        <ele>29.94</ele>
        <time>2015-05-10T13:01:56Z</time>
      </trkpt>
      <trkpt lat="50.37244" lon="2.99773">
        <ele>29.94</ele>
        <time>2015-05-10T13:01:59Z</time>
      </trkpt>
      <trkpt lat="50.37238" lon="2.99771">
        <ele>29.94</ele>
        <time>2015-05-10T13:02:04Z</time>
      </trkpt>
      <trkpt lat="50.37226" lon="2.99773">
        <ele>29.46</ele>
        <time>2015-05-10T13:02:17Z</time>
      </trkpt>
      <trkpt lat="50.37211" lon="2.9979">
        <ele>28.5</ele>
        <time>2015-05-10T13:02:35Z</time>
      </trkpt>
      <trkpt lat="50.37205" lon="2.99788">
        <ele>28.5</ele>
        <time>2015-05-10T13:02:48Z</time>
      </trkpt>
      <trkpt lat="50.3719" lon="2.99764">
        <ele>28.02</ele>
        <time>2015-05-10T13:03:05Z</time>
      </trkpt>
      <trkpt lat="50.37183" lon="2.99746">
        <ele>28.02</ele>
        <time>2015-05-10T13:03:24Z</time>
      </trkpt>
      <trkpt lat="50.37182" lon="2.99747">
        <ele>28.02</ele>
        <time>2015-05-10T13:03:56Z</time>
      </trkpt>
      <trkpt lat="50.37186" lon="2.99751">
        <ele>28.02</ele>
        <time>2015-05-10T13:04:10Z</time>
      </trkpt>
      <trkpt lat="50.3719" lon="2.99746">
        <ele>28.02</ele>
        <time>2015-05-10T13:04:23Z</time>
      </trkpt>
      <trkpt lat="50.37192" lon="2.9975">
        <ele>27.53</ele>
        <time>2015-05-10T13:04:42Z</time>
      </trkpt>
      <trkpt lat="50.37193" lon="2.9975">
        <ele>27.53</ele>
        <time>2015-05-10T13:04:55Z</time>
      </trkpt>
      <trkpt lat="50.37193" lon="2.9975">
        <ele>27.53</ele>
        <time>2015-05-10T13:05:08Z</time>
      </trkpt>
      <trkpt lat="50.37189" lon="2.99749">
        <ele>27.53</ele>
        <time>2015-05-10T13:05:24Z</time>
      </trkpt>
      <trkpt lat="50.37188" lon="2.99752">
        <ele>27.53</ele>
        <time>2015-05-10T13:05:47Z</time>
      </trkpt>
      <trkpt lat="50.37188" lon="2.99751">
        <ele>27.53</ele>
        <time>2015-05-10T13:06:09Z</time>
      </trkpt>
      <trkpt lat="50.37189" lon="2.99746">
        <ele>27.53</ele>
        <time>2015-05-10T13:06:38Z</time>
      </trkpt>
      <trkpt lat="50.37188" lon="2.99748">
        <ele>27.53</ele>
        <time>2015-05-10T13:07:04Z</time>
      </trkpt>
      <trkpt lat="50.37189" lon="2.99745">
        <ele>28.98</ele>
        <time>2015-05-10T13:07:23Z</time>
      </trkpt>
      <trkpt lat="50.3719" lon="2.99734">
        <ele>28.98</ele>
        <time>2015-05-10T13:07:44Z</time>
      </trkpt>
      <trkpt lat="50.37185" lon="2.99748">
        <ele>28.98</ele>
        <time>2015-05-10T13:07:55Z</time>
      </trkpt>
      <trkpt lat="50.3718" lon="2.99745">
        <ele>28.98</ele>
        <time>2015-05-10T13:08:01Z</time>
      </trkpt>
      <trkpt lat="50.37178" lon="2.99738">
        <ele>28.98</ele>
        <time>2015-05-10T13:08:16Z</time>
      </trkpt>
      <trkpt lat="50.37176" lon="2.99735">
        <ele>28.98</ele>
        <time>2015-05-10T13:08:37Z</time>
      </trkpt>
      <trkpt lat="50.37175" lon="2.99731">
        <ele>28.98</ele>
        <time>2015-05-10T13:08:52Z</time>
      </trkpt>
      <trkpt lat="50.37173" lon="2.99726">
        <ele>29.94</ele>
        <time>2015-05-10T13:08:56Z</time>
      </trkpt>
      <trkpt lat="50.37163" lon="2.99705">
        <ele>29.94</ele>
        <time>2015-05-10T13:09:12Z</time>
      </trkpt>
      <trkpt lat="50.37157" lon="2.99683">
        <ele>29.94</ele>
        <time>2015-05-10T13:09:26Z</time>
      </trkpt>
      <trkpt lat="50.37145" lon="2.99659">
        <ele>30.9</ele>
        <time>2015-05-10T13:09:42Z</time>
      </trkpt>
      <trkpt lat="50.37131" lon="2.99631">
        <ele>29.46</ele>
        <time>2015-05-10T13:10:01Z</time>
      </trkpt>
      <trkpt lat="50.3712" lon="2.99606">
        <ele>29.46</ele>
        <time>2015-05-10T13:10:16Z</time>
      </trkpt>
      <trkpt lat="50.37109" lon="2.99572">
        <ele>29.46</ele>
        <time>2015-05-10T13:10:35Z</time>
      </trkpt>
      <trkpt lat="50.37101" lon="2.99543">
        <ele>29.46</ele>
        <time>2015-05-10T13:10:51Z</time>
      </trkpt>
      <trkpt lat="50.37099" lon="2.99536">
        <ele>29.46</ele>
        <time>2015-05-10T13:10:55Z</time>
      </trkpt>
      <trkpt lat="50.37095" lon="2.99506">
        <ele>29.46</ele>
        <time>2015-05-10T13:11:12Z</time>
      </trkpt>
      <trkpt lat="50.37103" lon="2.99499">
        <ele>29.46</ele>
        <time>2015-05-10T13:11:25Z</time>
      </trkpt>
      <trkpt lat="50.37104" lon="2.99499">
        <ele>29.46</ele>
        <time>2015-05-10T13:11:39Z</time>
      </trkpt>
      <trkpt lat="50.37103" lon="2.99496">
        <ele>29.46</ele>
        <time>2015-05-10T13:11:56Z</time>
      </trkpt>
      <trkpt lat="50.37103" lon="2.99497">
        <ele>29.46</ele>
        <time>2015-05-10T13:12:14Z</time>
      </trkpt>
      <trkpt lat="50.37106" lon="2.99497">
        <ele>29.46</ele>
        <time>2015-05-10T13:12:32Z</time>
      </trkpt>
      <trkpt lat="50.37107" lon="2.99498">
        <ele>29.46</ele>
        <time>2015-05-10T13:12:47Z</time>
      </trkpt>
      <trkpt lat="50.37106" lon="2.995">
        <ele>29.46</ele>
        <time>2015-05-10T13:13:04Z</time>
      </trkpt>
      <trkpt lat="50.37105" lon="2.99499">
        <ele>29.46</ele>
        <time>2015-05-10T13:13:23Z</time>
      </trkpt>
      <trkpt lat="50.37104" lon="2.99497">
        <ele>30.42</ele>
        <time>2015-05-10T13:13:38Z</time>
      </trkpt>
      <trkpt lat="50.37104" lon="2.99501">
        <ele>30.42</ele>
        <time>2015-05-10T13:13:57Z</time>
      </trkpt>
      <trkpt lat="50.37101" lon="2.99498">
        <ele>30.42</ele>
        <time>2015-05-10T13:14:15Z</time>
      </trkpt>
      <trkpt lat="50.37098" lon="2.99497">
        <ele>30.42</ele>
        <time>2015-05-10T13:14:24Z</time>
      </trkpt>
      <trkpt lat="50.37095" lon="2.995">
        <ele>30.42</ele>
        <time>2015-05-10T13:14:31Z</time>
      </trkpt>
      <trkpt lat="50.37096" lon="2.99505">
        <ele>30.9</ele>
        <time>2015-05-10T13:14:47Z</time>
      </trkpt>
      <trkpt lat="50.37097" lon="2.99503">
        <ele>30.9</ele>
        <time>2015-05-10T13:15:04Z</time>
      </trkpt>
      <trkpt lat="50.371" lon="2.99502">
        <ele>30.9</ele>
        <time>2015-05-10T13:15:09Z</time>
      </trkpt>
      <trkpt lat="50.37103" lon="2.99499">
        <ele>31.38</ele>
        <time>2015-05-10T13:15:23Z</time>
      </trkpt>
      <trkpt lat="50.37103" lon="2.99501">
        <ele>30.42</ele>
        <time>2015-05-10T13:15:39Z</time>
      </trkpt>
      <trkpt lat="50.37102" lon="2.9951">
        <ele>30.42</ele>
        <time>2015-05-10T13:16:14Z</time>
      </trkpt>
      <trkpt lat="50.37104" lon="2.99508">
        <ele>29.94</ele>
        <time>2015-05-10T13:16:38Z</time>
      </trkpt>
      <trkpt lat="50.37108" lon="2.99501">
        <ele>29.94</ele>
        <time>2015-05-10T13:17:11Z</time>
      </trkpt>
      <trkpt lat="50.37104" lon="2.99503">
        <ele>29.94</ele>
        <time>2015-05-10T13:17:34Z</time>
      </trkpt>
      <trkpt lat="50.37105" lon="2.995">
        <ele>29.94</ele>
        <time>2015-05-10T13:17:48Z</time>
      </trkpt>
      <trkpt lat="50.37102" lon="2.99506">
        <ele>29.94</ele>
        <time>2015-05-10T13:17:52Z</time>
      </trkpt>
      <trkpt lat="50.37094" lon="2.99491">
        <ele>29.94</ele>
        <time>2015-05-10T13:18:01Z</time>
      </trkpt>
      <trkpt lat="50.37084" lon="2.99458">
        <ele>29.46</ele>
        <time>2015-05-10T13:18:21Z</time>
      </trkpt>
      <trkpt lat="50.37075" lon="2.99428">
        <ele>29.46</ele>
        <time>2015-05-10T13:18:41Z</time>
      </trkpt>
      <trkpt lat="50.3707" lon="2.99411">
        <ele>29.46</ele>
        <time>2015-05-10T13:18:58Z</time>
      </trkpt>
      <trkpt lat="50.37064" lon="2.99389">
        <ele>29.46</ele>
        <time>2015-05-10T13:19:13Z</time>
      </trkpt>
      <trkpt lat="50.37057" lon="2.99364">
        <ele>29.46</ele>
        <time>2015-05-10T13:19:28Z</time>
      </trkpt>
      <trkpt lat="50.37055" lon="2.99356">
        <ele>29.46</ele>
        <time>2015-05-10T13:19:34Z</time>
      </trkpt>
      <trkpt lat="50.37053" lon="2.99347">
        <ele>29.46</ele>
        <time>2015-05-10T13:19:39Z</time>
      </trkpt>
      <trkpt lat="50.37049" lon="2.99324">
        <ele>29.46</ele>
        <time>2015-05-10T13:19:53Z</time>
      </trkpt>
      <trkpt lat="50.37047" lon="2.99319">
        <ele>29.46</ele>
        <time>2015-05-10T13:19:57Z</time>
      </trkpt>
      <trkpt lat="50.37028" lon="2.99311">
        <ele>29.46</ele>
        <time>2015-05-10T13:20:16Z</time>
      </trkpt>
      <trkpt lat="50.37008" lon="2.99297">
        <ele>29.46</ele>
        <time>2015-05-10T13:20:38Z</time>
      </trkpt>
      <trkpt lat="50.37002" lon="2.99289">
        <ele>29.46</ele>
        <time>2015-05-10T13:20:45Z</time>
      </trkpt>
      <trkpt lat="50.36998" lon="2.99262">
        <ele>29.46</ele>
        <time>2015-05-10T13:21:01Z</time>
      </trkpt>
      <trkpt lat="50.37" lon="2.99232">
        <ele>29.46</ele>
        <time>2015-05-10T13:21:17Z</time>
      </trkpt>
      <trkpt lat="50.36999" lon="2.99198">
        <ele>30.9</ele>
        <time>2015-05-10T13:21:36Z</time>
      </trkpt>
      <trkpt lat="50.37" lon="2.99162">
        <ele>30.9</ele>
        <time>2015-05-10T13:21:56Z</time>
      </trkpt>
      <trkpt lat="50.37002" lon="2.99129">
        <ele>30.9</ele>
        <time>2015-05-10T13:22:14Z</time>
      </trkpt>
      <trkpt lat="50.37003" lon="2.99113">
        <ele>30.9</ele>
        <time>2015-05-10T13:22:23Z</time>
      </trkpt>
      <trkpt lat="50.37002" lon="2.99081">
        <ele>30.9</ele>
        <time>2015-05-10T13:22:42Z</time>
      </trkpt>
      <trkpt lat="50.37002" lon="2.99079">
        <ele>30.9</ele>
        <time>2015-05-10T13:22:43Z</time>
      </trkpt>
      <trkpt lat="50.36998" lon="2.99068">
        <ele>30.9</ele>
        <time>2015-05-10T13:22:51Z</time>
      </trkpt>
      <trkpt lat="50.36987" lon="2.99043">
        <ele>30.9</ele>
        <time>2015-05-10T13:23:08Z</time>
      </trkpt>
      <trkpt lat="50.36988" lon="2.99033">
        <ele>30.9</ele>
        <time>2015-05-10T13:23:23Z</time>
      </trkpt>
      <trkpt lat="50.36985" lon="2.99024">
        <ele>30.42</ele>
        <time>2015-05-10T13:23:48Z</time>
      </trkpt>
      <trkpt lat="50.36986" lon="2.99028">
        <ele>30.42</ele>
        <time>2015-05-10T13:24:09Z</time>
      </trkpt>
      <trkpt lat="50.36986" lon="2.99028">
        <ele>30.42</ele>
        <time>2015-05-10T13:24:35Z</time>
      </trkpt>
      <trkpt lat="50.36986" lon="2.99028">
        <ele>30.42</ele>
        <time>2015-05-10T13:24:58Z</time>
      </trkpt>
      <trkpt lat="50.36984" lon="2.99023">
        <ele>28.98</ele>
        <time>2015-05-10T13:25:13Z</time>
      </trkpt>
      <trkpt lat="50.36984" lon="2.99017">
        <ele>28.5</ele>
        <time>2015-05-10T13:25:44Z</time>
      </trkpt>
      <trkpt lat="50.36984" lon="2.99026">
        <ele>29.46</ele>
        <time>2015-05-10T13:25:54Z</time>
      </trkpt>
      <trkpt lat="50.36984" lon="2.99026">
        <ele>29.46</ele>
        <time>2015-05-10T13:26:10Z</time>
      </trkpt>
      <trkpt lat="50.36983" lon="2.9903">
        <ele>29.46</ele>
        <time>2015-05-10T13:26:26Z</time>
      </trkpt>
      <trkpt lat="50.36975" lon="2.99011">
        <ele>29.46</ele>
        <time>2015-05-10T13:26:43Z</time>
      </trkpt>
      <trkpt lat="50.36971" lon="2.99004">
        <ele>29.46</ele>
        <time>2015-05-10T13:26:48Z</time>
      </trkpt>
      <trkpt lat="50.36964" lon="2.98975">
        <ele>30.42</ele>
        <time>2015-05-10T13:27:06Z</time>
      </trkpt>
      <trkpt lat="50.36963" lon="2.98967">
        <ele>30.42</ele>
        <time>2015-05-10T13:27:26Z</time>
      </trkpt>
      <trkpt lat="50.36954" lon="2.98944">
        <ele>30.42</ele>
        <time>2015-05-10T13:27:44Z</time>
      </trkpt>
      <trkpt lat="50.36954" lon="2.98943">
        <ele>30.42</ele>
        <time>2015-05-10T13:27:45Z</time>
      </trkpt>
      <trkpt lat="50.36939" lon="2.98924">
        <ele>28.98</ele>
        <time>2015-05-10T13:28:01Z</time>
      </trkpt>
      <trkpt lat="50.36921" lon="2.98906">
        <ele>28.98</ele>
        <time>2015-05-10T13:28:18Z</time>
      </trkpt>
      <trkpt lat="50.369" lon="2.98887">
        <ele>28.98</ele>
        <time>2015-05-10T13:28:37Z</time>
      </trkpt>
      <trkpt lat="50.36885" lon="2.98862">
        <ele>28.98</ele>
        <time>2015-05-10T13:28:55Z</time>
      </trkpt>
      <trkpt lat="50.36869" lon="2.98838">
        <ele>28.98</ele>
        <time>2015-05-10T13:29:13Z</time>
      </trkpt>
      <trkpt lat="50.36855" lon="2.98816">
        <ele>28.98</ele>
        <time>2015-05-10T13:29:27Z</time>
      </trkpt>
      <trkpt lat="50.36851" lon="2.98807">
        <ele>28.98</ele>
        <time>2015-05-10T13:29:32Z</time>
      </trkpt>
      <trkpt lat="50.36843" lon="2.98778">
        <ele>28.98</ele>
        <time>2015-05-10T13:29:47Z</time>
      </trkpt>
      <trkpt lat="50.36833" lon="2.9876">
        <ele>28.98</ele>
        <time>2015-05-10T13:30:00Z</time>
      </trkpt>
      <trkpt lat="50.36829" lon="2.98765">
        <ele>30.42</ele>
        <time>2015-05-10T13:30:05Z</time>
      </trkpt>
      <trkpt lat="50.36824" lon="2.98796">
        <ele>30.42</ele>
        <time>2015-05-10T13:30:23Z</time>
      </trkpt>
      <trkpt lat="50.36814" lon="2.9882">
        <ele>30.42</ele>
        <time>2015-05-10T13:30:38Z</time>
      </trkpt>
      <trkpt lat="50.36793" lon="2.98837">
        <ele>30.42</ele>
        <time>2015-05-10T13:30:58Z</time>
      </trkpt>
      <trkpt lat="50.36776" lon="2.98848">
        <ele>30.9</ele>
        <time>2015-05-10T13:31:14Z</time>
      </trkpt>
      <trkpt lat="50.36773" lon="2.98847">
        <ele>30.9</ele>
        <time>2015-05-10T13:31:19Z</time>
      </trkpt>
      <trkpt lat="50.36775" lon="2.98845">
        <ele>30.9</ele>
        <time>2015-05-10T13:31:21Z</time>
      </trkpt>
      <trkpt lat="50.36772" lon="2.98842">
        <ele>30.9</ele>
        <time>2015-05-10T13:31:33Z</time>
      </trkpt>
      <trkpt lat="50.3677" lon="2.98839">
        <ele>30.9</ele>
        <time>2015-05-10T13:31:38Z</time>
      </trkpt>
      <trkpt lat="50.36767" lon="2.98845">
        <ele>30.9</ele>
        <time>2015-05-10T13:31:49Z</time>
      </trkpt>
      <trkpt lat="50.36768" lon="2.98845">
        <ele>30.9</ele>
        <time>2015-05-10T13:32:04Z</time>
      </trkpt>
      <trkpt lat="50.36768" lon="2.98846">
        <ele>30.9</ele>
        <time>2015-05-10T13:32:06Z</time>
      </trkpt>
      <trkpt lat="50.36766" lon="2.98843">
        <ele>30.9</ele>
        <time>2015-05-10T13:32:19Z</time>
      </trkpt>
      <trkpt lat="50.36769" lon="2.98844">
        <ele>31.86</ele>
        <time>2015-05-10T13:32:48Z</time>
      </trkpt>
      <trkpt lat="50.36769" lon="2.98844">
        <ele>30.9</ele>
        <time>2015-05-10T13:32:50Z</time>
      </trkpt>
      <trkpt lat="50.36769" lon="2.98846">
        <ele>30.42</ele>
        <time>2015-05-10T13:33:27Z</time>
      </trkpt>
      <trkpt lat="50.36769" lon="2.98843">
        <ele>30.42</ele>
        <time>2015-05-10T13:33:57Z</time>
      </trkpt>
      <trkpt lat="50.36771" lon="2.98841">
        <ele>30.42</ele>
        <time>2015-05-10T13:34:15Z</time>
      </trkpt>
      <trkpt lat="50.36772" lon="2.9884">
        <ele>30.42</ele>
        <time>2015-05-10T13:34:36Z</time>
      </trkpt>
      <trkpt lat="50.36769" lon="2.98848">
        <ele>30.42</ele>
        <time>2015-05-10T13:34:46Z</time>
      </trkpt>
      <trkpt lat="50.36769" lon="2.9885">
        <ele>30.42</ele>
        <time>2015-05-10T13:34:48Z</time>
      </trkpt>
      <trkpt lat="50.36774" lon="2.98848">
        <ele>31.86</ele>
        <time>2015-05-10T13:34:59Z</time>
      </trkpt>
      <trkpt lat="50.36774" lon="2.98845">
        <ele>31.86</ele>
        <time>2015-05-10T13:35:14Z</time>
      </trkpt>
      <trkpt lat="50.36773" lon="2.98847">
        <ele>31.38</ele>
        <time>2015-05-10T13:35:24Z</time>
      </trkpt>
      <trkpt lat="50.36773" lon="2.98849">
        <ele>31.38</ele>
        <time>2015-05-10T13:35:25Z</time>
      </trkpt>
      <trkpt lat="50.36771" lon="2.98852">
        <ele>31.38</ele>
        <time>2015-05-10T13:35:28Z</time>
      </trkpt>
      <trkpt lat="50.36768" lon="2.98844">
        <ele>31.38</ele>
        <time>2015-05-10T13:35:41Z</time>
      </trkpt>
      <trkpt lat="50.36767" lon="2.98844">
        <ele>31.38</ele>
        <time>2015-05-10T13:36:06Z</time>
      </trkpt>
      <trkpt lat="50.36767" lon="2.98844">
        <ele>31.86</ele>
        <time>2015-05-10T13:36:36Z</time>
      </trkpt>
      <trkpt lat="50.36768" lon="2.98842">
        <ele>31.86</ele>
        <time>2015-05-10T13:36:49Z</time>
      </trkpt>
      <trkpt lat="50.36767" lon="2.98842">
        <ele>30.42</ele>
        <time>2015-05-10T13:36:54Z</time>
      </trkpt>
      <trkpt lat="50.36767" lon="2.9884">
        <ele>30.42</ele>
        <time>2015-05-10T13:37:09Z</time>
      </trkpt>
      <trkpt lat="50.36767" lon="2.98839">
        <ele>30.42</ele>
        <time>2015-05-10T13:37:20Z</time>
      </trkpt>
      <trkpt lat="50.36764" lon="2.9884">
        <ele>30.42</ele>
        <time>2015-05-10T13:37:43Z</time>
      </trkpt>
      <trkpt lat="50.36764" lon="2.9884">
        <ele>30.42</ele>
        <time>2015-05-10T13:37:48Z</time>
      </trkpt>
      <trkpt lat="50.36771" lon="2.9884">
        <ele>31.86</ele>
        <time>2015-05-10T13:38:03Z</time>
      </trkpt>
      <trkpt lat="50.36774" lon="2.98843">
        <ele>31.86</ele>
        <time>2015-05-10T13:38:09Z</time>
      </trkpt>
      <trkpt lat="50.36769" lon="2.9885">
        <ele>31.86</ele>
        <time>2015-05-10T13:38:23Z</time>
      </trkpt>
      <trkpt lat="50.36769" lon="2.98848">
        <ele>31.86</ele>
        <time>2015-05-10T13:38:35Z</time>
      </trkpt>
      <trkpt lat="50.36766" lon="2.98845">
        <ele>31.38</ele>
        <time>2015-05-10T13:38:47Z</time>
      </trkpt>
      <trkpt lat="50.36768" lon="2.98846">
        <ele>31.38</ele>
        <time>2015-05-10T13:39:00Z</time>
      </trkpt>
      <trkpt lat="50.36767" lon="2.98843">
        <ele>31.38</ele>
        <time>2015-05-10T13:39:11Z</time>
      </trkpt>
      <trkpt lat="50.36768" lon="2.98843">
        <ele>31.38</ele>
        <time>2015-05-10T13:39:27Z</time>
      </trkpt>
      <trkpt lat="50.36767" lon="2.98843">
        <ele>31.38</ele>
        <time>2015-05-10T13:39:39Z</time>
      </trkpt>
      <trkpt lat="50.36767" lon="2.98846">
        <ele>31.38</ele>
        <time>2015-05-10T13:39:50Z</time>
      </trkpt>
      <trkpt lat="50.36768" lon="2.98844">
        <ele>31.38</ele>
        <time>2015-05-10T13:40:11Z</time>
      </trkpt>
      <trkpt lat="50.36768" lon="2.98846">
        <ele>31.38</ele>
        <time>2015-05-10T13:40:25Z</time>
      </trkpt>
      <trkpt lat="50.36769" lon="2.98846">
        <ele>31.86</ele>
        <time>2015-05-10T13:40:57Z</time>
      </trkpt>
      <trkpt lat="50.36769" lon="2.98845">
        <ele>30.42</ele>
        <time>2015-05-10T13:41:02Z</time>
      </trkpt>
      <trkpt lat="50.36769" lon="2.98846">
        <ele>30.42</ele>
        <time>2015-05-10T13:41:05Z</time>
      </trkpt>
      <trkpt lat="50.36767" lon="2.9885">
        <ele>30.42</ele>
        <time>2015-05-10T13:41:15Z</time>
      </trkpt>
      <trkpt lat="50.36769" lon="2.98853">
        <ele>30.42</ele>
        <time>2015-05-10T13:41:18Z</time>
      </trkpt>
      <trkpt lat="50.36771" lon="2.98851">
        <ele>31.86</ele>
        <time>2015-05-10T13:41:21Z</time>
      </trkpt>
      <trkpt lat="50.36774" lon="2.9885">
        <ele>30.9</ele>
        <time>2015-05-10T13:41:34Z</time>
      </trkpt>
      <trkpt lat="50.36767" lon="2.98844">
        <ele>30.9</ele>
        <time>2015-05-10T13:41:51Z</time>
      </trkpt>
      <trkpt lat="50.36766" lon="2.98838">
        <ele>30.9</ele>
        <time>2015-05-10T13:42:04Z</time>
      </trkpt>
      <trkpt lat="50.3677" lon="2.98835">
        <ele>30.42</ele>
        <time>2015-05-10T13:42:18Z</time>
      </trkpt>
      <trkpt lat="50.36771" lon="2.98841">
        <ele>30.42</ele>
        <time>2015-05-10T13:42:31Z</time>
      </trkpt>
      <trkpt lat="50.36774" lon="2.98848">
        <ele>30.42</ele>
        <time>2015-05-10T13:42:45Z</time>
      </trkpt>
      <trkpt lat="50.3677" lon="2.9884">
        <ele>30.42</ele>
        <time>2015-05-10T13:42:57Z</time>
      </trkpt>
      <trkpt lat="50.36765" lon="2.98844">
        <ele>30.42</ele>
        <time>2015-05-10T13:43:10Z</time>
      </trkpt>
      <trkpt lat="50.36768" lon="2.98836">
        <ele>30.42</ele>
        <time>2015-05-10T13:43:28Z</time>
      </trkpt>
      <trkpt lat="50.3677" lon="2.98839">
        <ele>30.42</ele>
        <time>2015-05-10T13:43:40Z</time>
      </trkpt>
      <trkpt lat="50.36772" lon="2.98843">
        <ele>30.42</ele>
        <time>2015-05-10T13:43:50Z</time>
      </trkpt>
      <trkpt lat="50.36773" lon="2.98845">
        <ele>30.42</ele>
        <time>2015-05-10T13:43:53Z</time>
      </trkpt>
      <trkpt lat="50.36771" lon="2.98847">
        <ele>30.42</ele>
        <time>2015-05-10T13:44:09Z</time>
      </trkpt>
      <trkpt lat="50.36768" lon="2.9885">
        <ele>31.38</ele>
        <time>2015-05-10T13:44:19Z</time>
      </trkpt>
      <trkpt lat="50.36767" lon="2.98846">
        <ele>31.38</ele>
        <time>2015-05-10T13:44:31Z</time>
      </trkpt>
      <trkpt lat="50.36766" lon="2.98846">
        <ele>30.9</ele>
        <time>2015-05-10T13:44:46Z</time>
      </trkpt>
      <trkpt lat="50.36766" lon="2.98843">
        <ele>30.9</ele>
        <time>2015-05-10T13:45:00Z</time>
      </trkpt>
      <trkpt lat="50.36766" lon="2.98843">
        <ele>30.9</ele>
        <time>2015-05-10T13:45:11Z</time>
      </trkpt>
      <trkpt lat="50.36767" lon="2.98846">
        <ele>30.9</ele>
        <time>2015-05-10T13:45:28Z</time>
      </trkpt>
      <trkpt lat="50.36766" lon="2.98846">
        <ele>30.9</ele>
        <time>2015-05-10T13:45:47Z</time>
      </trkpt>
      <trkpt lat="50.36766" lon="2.98847">
        <ele>30.9</ele>
        <time>2015-05-10T13:46:17Z</time>
      </trkpt>
      <trkpt lat="50.36767" lon="2.98846">
        <ele>30.9</ele>
        <time>2015-05-10T13:46:48Z</time>
      </trkpt>
      <trkpt lat="50.36767" lon="2.98847">
        <ele>30.42</ele>
        <time>2015-05-10T13:47:13Z</time>
      </trkpt>
      <trkpt lat="50.36766" lon="2.98847">
        <ele>30.42</ele>
        <time>2015-05-10T13:47:42Z</time>
      </trkpt>
      <trkpt lat="50.36767" lon="2.98849">
        <ele>30.42</ele>
        <time>2015-05-10T13:48:15Z</time>
      </trkpt>
      <trkpt lat="50.36768" lon="2.9885">
        <ele>31.86</ele>
        <time>2015-05-10T13:48:29Z</time>
      </trkpt>
      <trkpt lat="50.36786" lon="2.98841">
        <ele>31.86</ele>
        <time>2015-05-10T13:48:48Z</time>
      </trkpt>
      <trkpt lat="50.36806" lon="2.98828">
        <ele>31.86</ele>
        <time>2015-05-10T13:49:07Z</time>
      </trkpt>
      <trkpt lat="50.36823" lon="2.98806">
        <ele>31.86</ele>
        <time>2015-05-10T13:49:25Z</time>
      </trkpt>
      <trkpt lat="50.36828" lon="2.98794">
        <ele>30.42</ele>
        <time>2015-05-10T13:49:34Z</time>
      </trkpt>
      <trkpt lat="50.36828" lon="2.98786">
        <ele>30.42</ele>
        <time>2015-05-10T13:49:50Z</time>
      </trkpt>
      <trkpt lat="50.36828" lon="2.98785">
        <ele>30.42</ele>
        <time>2015-05-10T13:49:52Z</time>
      </trkpt>
      <trkpt lat="50.36829" lon="2.98766">
        <ele>30.42</ele>
        <time>2015-05-10T13:50:03Z</time>
      </trkpt>
      <trkpt lat="50.3683" lon="2.98758">
        <ele>30.42</ele>
        <time>2015-05-10T13:50:07Z</time>
      </trkpt>
      <trkpt lat="50.36834" lon="2.98749">
        <ele>30.42</ele>
        <time>2015-05-10T13:50:12Z</time>
      </trkpt>
      <trkpt lat="50.36836" lon="2.98747">
        <ele>30.42</ele>
        <time>2015-05-10T13:50:14Z</time>
      </trkpt>
      <trkpt lat="50.36838" lon="2.98743">
        <ele>30.42</ele>
        <time>2015-05-10T13:50:17Z</time>
      </trkpt>
      <trkpt lat="50.36846" lon="2.98736">
        <ele>30.42</ele>
        <time>2015-05-10T13:50:25Z</time>
      </trkpt>
      <trkpt lat="50.36862" lon="2.9872">
        <ele>30.42</ele>
        <time>2015-05-10T13:50:40Z</time>
      </trkpt>
      <trkpt lat="50.36871" lon="2.98708">
        <ele>30.42</ele>
        <time>2015-05-10T13:50:50Z</time>
      </trkpt>
      <trkpt lat="50.36887" lon="2.98694">
        <ele>30.42</ele>
        <time>2015-05-10T13:51:07Z</time>
      </trkpt>
      <trkpt lat="50.36903" lon="2.98679">
        <ele>31.38</ele>
        <time>2015-05-10T13:51:21Z</time>
      </trkpt>
      <trkpt lat="50.36921" lon="2.9866">
        <ele>32.82</ele>
        <time>2015-05-10T13:51:38Z</time>
      </trkpt>
      <trkpt lat="50.36925" lon="2.98653">
        <ele>32.82</ele>
        <time>2015-05-10T13:51:51Z</time>
      </trkpt>
      <trkpt lat="50.36922" lon="2.9865">
        <ele>33.3</ele>
        <time>2015-05-10T13:52:07Z</time>
      </trkpt>
      <trkpt lat="50.36923" lon="2.98652">
        <ele>33.3</ele>
        <time>2015-05-10T13:52:20Z</time>
      </trkpt>
      <trkpt lat="50.3692" lon="2.98652">
        <ele>33.3</ele>
        <time>2015-05-10T13:52:32Z</time>
      </trkpt>
      <trkpt lat="50.3692" lon="2.98651">
        <ele>33.3</ele>
        <time>2015-05-10T13:52:56Z</time>
      </trkpt>
      <trkpt lat="50.3692" lon="2.98652">
        <ele>33.3</ele>
        <time>2015-05-10T13:53:15Z</time>
      </trkpt>
      <trkpt lat="50.36921" lon="2.98652">
        <ele>33.3</ele>
        <time>2015-05-10T13:53:30Z</time>
      </trkpt>
      <trkpt lat="50.3692" lon="2.9865">
        <ele>33.3</ele>
        <time>2015-05-10T13:53:47Z</time>
      </trkpt>
      <trkpt lat="50.3692" lon="2.9865">
        <ele>33.3</ele>
        <time>2015-05-10T13:54:11Z</time>
      </trkpt>
      <trkpt lat="50.3692" lon="2.98649">
        <ele>33.3</ele>
        <time>2015-05-10T13:54:37Z</time>
      </trkpt>
      <trkpt lat="50.36919" lon="2.98647">
        <ele>33.3</ele>
        <time>2015-05-10T13:55:03Z</time>
      </trkpt>
      <trkpt lat="50.36922" lon="2.98653">
        <ele>33.78</ele>
        <time>2015-05-10T13:55:17Z</time>
      </trkpt>
      <trkpt lat="50.36919" lon="2.98663">
        <ele>32.82</ele>
        <time>2015-05-10T13:55:33Z</time>
      </trkpt>
      <trkpt lat="50.36918" lon="2.98661">
        <ele>32.82</ele>
        <time>2015-05-10T13:55:48Z</time>
      </trkpt>
      <trkpt lat="50.36918" lon="2.98663">
        <ele>32.82</ele>
        <time>2015-05-10T13:56:07Z</time>
      </trkpt>
      <trkpt lat="50.36919" lon="2.98662">
        <ele>32.82</ele>
        <time>2015-05-10T13:56:27Z</time>
      </trkpt>
      <trkpt lat="50.36915" lon="2.98668">
        <ele>32.82</ele>
        <time>2015-05-10T13:56:40Z</time>
      </trkpt>
      <trkpt lat="50.36913" lon="2.98669">
        <ele>32.82</ele>
        <time>2015-05-10T13:57:03Z</time>
      </trkpt>
      <trkpt lat="50.36913" lon="2.98668">
        <ele>33.78</ele>
        <time>2015-05-10T13:57:11Z</time>
      </trkpt>
      <trkpt lat="50.36921" lon="2.98648">
        <ele>33.78</ele>
        <time>2015-05-10T13:57:25Z</time>
      </trkpt>
      <trkpt lat="50.36923" lon="2.98639">
        <ele>34.26</ele>
        <time>2015-05-10T13:57:31Z</time>
      </trkpt>
      <trkpt lat="50.36922" lon="2.98627">
        <ele>34.26</ele>
        <time>2015-05-10T13:57:37Z</time>
      </trkpt>
      <trkpt lat="50.36921" lon="2.98619">
        <ele>34.26</ele>
        <time>2015-05-10T13:57:42Z</time>
      </trkpt>
      <trkpt lat="50.36918" lon="2.98596">
        <ele>34.74</ele>
        <time>2015-05-10T13:57:57Z</time>
      </trkpt>
      <trkpt lat="50.36911" lon="2.98577">
        <ele>35.23</ele>
        <time>2015-05-10T13:58:09Z</time>
      </trkpt>
      <trkpt lat="50.36899" lon="2.9855">
        <ele>35.23</ele>
        <time>2015-05-10T13:58:26Z</time>
      </trkpt>
      <trkpt lat="50.36891" lon="2.9853">
        <ele>35.23</ele>
        <time>2015-05-10T13:58:40Z</time>
      </trkpt>
      <trkpt lat="50.36882" lon="2.9851">
        <ele>35.23</ele>
        <time>2015-05-10T13:58:52Z</time>
      </trkpt>
      <trkpt lat="50.3687" lon="2.9848">
        <ele>35.23</ele>
        <time>2015-05-10T13:59:11Z</time>
      </trkpt>
      <trkpt lat="50.3686" lon="2.98455">
        <ele>35.23</ele>
        <time>2015-05-10T13:59:26Z</time>
      </trkpt>
      <trkpt lat="50.36853" lon="2.98436">
        <ele>35.23</ele>
        <time>2015-05-10T13:59:36Z</time>
      </trkpt>
      <trkpt lat="50.36847" lon="2.98422">
        <ele>35.71</ele>
        <time>2015-05-10T13:59:45Z</time>
      </trkpt>
      <trkpt lat="50.36843" lon="2.98416">
        <ele>35.71</ele>
        <time>2015-05-10T13:59:49Z</time>
      </trkpt>
      <trkpt lat="50.3683" lon="2.98382">
        <ele>35.71</ele>
        <time>2015-05-10T14:00:09Z</time>
      </trkpt>
      <trkpt lat="50.36817" lon="2.98343">
        <ele>35.23</ele>
        <time>2015-05-10T14:00:31Z</time>
      </trkpt>
      <trkpt lat="50.36809" lon="2.98304">
        <ele>35.23</ele>
        <time>2015-05-10T14:00:52Z</time>
      </trkpt>
      <trkpt lat="50.36806" lon="2.983">
        <ele>35.23</ele>
        <time>2015-05-10T14:00:55Z</time>
      </trkpt>
      <trkpt lat="50.36792" lon="2.98309">
        <ele>35.23</ele>
        <time>2015-05-10T14:01:09Z</time>
      </trkpt>
      <trkpt lat="50.36783" lon="2.98315">
        <ele>35.23</ele>
        <time>2015-05-10T14:01:24Z</time>
      </trkpt>
      <trkpt lat="50.36781" lon="2.98316">
        <ele>35.23</ele>
        <time>2015-05-10T14:01:36Z</time>
      </trkpt>
      <trkpt lat="50.36781" lon="2.9832">
        <ele>35.23</ele>
        <time>2015-05-10T14:01:49Z</time>
      </trkpt>
      <trkpt lat="50.36778" lon="2.98311">
        <ele>35.23</ele>
        <time>2015-05-10T14:02:00Z</time>
      </trkpt>
      <trkpt lat="50.36779" lon="2.98307">
        <ele>35.23</ele>
        <time>2015-05-10T14:02:13Z</time>
      </trkpt>
      <trkpt lat="50.36777" lon="2.98306">
        <ele>35.23</ele>
        <time>2015-05-10T14:02:39Z</time>
      </trkpt>
      <trkpt lat="50.36777" lon="2.98313">
        <ele>34.74</ele>
        <time>2015-05-10T14:02:50Z</time>
      </trkpt>
      <trkpt lat="50.36777" lon="2.98312">
        <ele>34.74</ele>
        <time>2015-05-10T14:03:21Z</time>
      </trkpt>
      <trkpt lat="50.3678" lon="2.98318">
        <ele>34.26</ele>
        <time>2015-05-10T14:03:46Z</time>
      </trkpt>
      <trkpt lat="50.36782" lon="2.98311">
        <ele>34.26</ele>
        <time>2015-05-10T14:04:16Z</time>
      </trkpt>
      <trkpt lat="50.36781" lon="2.98311">
        <ele>34.26</ele>
        <time>2015-05-10T14:04:45Z</time>
      </trkpt>
      <trkpt lat="50.3678" lon="2.98307">
        <ele>34.26</ele>
        <time>2015-05-10T14:04:54Z</time>
      </trkpt>
      <trkpt lat="50.36777" lon="2.98303">
        <ele>34.26</ele>
        <time>2015-05-10T14:05:12Z</time>
      </trkpt>
      <trkpt lat="50.36778" lon="2.98313">
        <ele>34.26</ele>
        <time>2015-05-10T14:05:33Z</time>
      </trkpt>
      <trkpt lat="50.36777" lon="2.98318">
        <ele>33.78</ele>
        <time>2015-05-10T14:05:48Z</time>
      </trkpt>
      <trkpt lat="50.36775" lon="2.9832">
        <ele>33.78</ele>
        <time>2015-05-10T14:05:56Z</time>
      </trkpt>
      <trkpt lat="50.36767" lon="2.98322">
        <ele>32.82</ele>
        <time>2015-05-10T14:06:07Z</time>
      </trkpt>
      <trkpt lat="50.36766" lon="2.98323">
        <ele>32.82</ele>
        <time>2015-05-10T14:06:09Z</time>
      </trkpt>
      <trkpt lat="50.36763" lon="2.98328">
        <ele>32.82</ele>
        <time>2015-05-10T14:06:13Z</time>
      </trkpt>
      <trkpt lat="50.36761" lon="2.9833">
        <ele>32.34</ele>
        <time>2015-05-10T14:06:15Z</time>
      </trkpt>
      <trkpt lat="50.36752" lon="2.98337">
        <ele>32.34</ele>
        <time>2015-05-10T14:06:26Z</time>
      </trkpt>
      <trkpt lat="50.36738" lon="2.98347">
        <ele>31.86</ele>
        <time>2015-05-10T14:06:41Z</time>
      </trkpt>
      <trkpt lat="50.36735" lon="2.9835">
        <ele>31.86</ele>
        <time>2015-05-10T14:06:44Z</time>
      </trkpt>
      <trkpt lat="50.36722" lon="2.98356">
        <ele>31.86</ele>
        <time>2015-05-10T14:06:58Z</time>
      </trkpt>
      <trkpt lat="50.36713" lon="2.98349">
        <ele>30.9</ele>
        <time>2015-05-10T14:07:10Z</time>
      </trkpt>
      <trkpt lat="50.36716" lon="2.98353">
        <ele>30.9</ele>
        <time>2015-05-10T14:07:24Z</time>
      </trkpt>
      <trkpt lat="50.36716" lon="2.98355">
        <ele>30.9</ele>
        <time>2015-05-10T14:07:30Z</time>
      </trkpt>
      <trkpt lat="50.36724" lon="2.98356">
        <ele>30.9</ele>
        <time>2015-05-10T14:07:41Z</time>
      </trkpt>
      <trkpt lat="50.36731" lon="2.98349">
        <ele>30.9</ele>
        <time>2015-05-10T14:07:52Z</time>
      </trkpt>
      <trkpt lat="50.36739" lon="2.98338">
        <ele>32.34</ele>
        <time>2015-05-10T14:08:10Z</time>
      </trkpt>
      <trkpt lat="50.36748" lon="2.98332">
        <ele>32.82</ele>
        <time>2015-05-10T14:08:21Z</time>
      </trkpt>
      <trkpt lat="50.36758" lon="2.98325">
        <ele>32.82</ele>
        <time>2015-05-10T14:08:34Z</time>
      </trkpt>
      <trkpt lat="50.3677" lon="2.98319">
        <ele>33.78</ele>
        <time>2015-05-10T14:08:46Z</time>
      </trkpt>
      <trkpt lat="50.36779" lon="2.98314">
        <ele>34.26</ele>
        <time>2015-05-10T14:08:56Z</time>
      </trkpt>
      <trkpt lat="50.36803" lon="2.98301">
        <ele>34.26</ele>
        <time>2015-05-10T14:09:18Z</time>
      </trkpt>
      <trkpt lat="50.36806" lon="2.98305">
        <ele>34.26</ele>
        <time>2015-05-10T14:09:22Z</time>
      </trkpt>
      <trkpt lat="50.36809" lon="2.98315">
        <ele>34.26</ele>
        <time>2015-05-10T14:09:28Z</time>
      </trkpt>
      <trkpt lat="50.36813" lon="2.98328">
        <ele>34.26</ele>
        <time>2015-05-10T14:09:36Z</time>
      </trkpt>
      <trkpt lat="50.36822" lon="2.98358">
        <ele>34.26</ele>
        <time>2015-05-10T14:09:52Z</time>
      </trkpt>
      <trkpt lat="50.36822" lon="2.98359">
        <ele>34.26</ele>
        <time>2015-05-10T14:09:53Z</time>
      </trkpt>
      <trkpt lat="50.36832" lon="2.98389">
        <ele>34.74</ele>
        <time>2015-05-10T14:10:10Z</time>
      </trkpt>
      <trkpt lat="50.36844" lon="2.98422">
        <ele>34.74</ele>
        <time>2015-05-10T14:10:31Z</time>
      </trkpt>
      <trkpt lat="50.36854" lon="2.98444">
        <ele>34.74</ele>
        <time>2015-05-10T14:10:43Z</time>
      </trkpt>
      <trkpt lat="50.36858" lon="2.98451">
        <ele>34.74</ele>
        <time>2015-05-10T14:10:47Z</time>
      </trkpt>
      <trkpt lat="50.36867" lon="2.9848">
        <ele>34.74</ele>
        <time>2015-05-10T14:11:04Z</time>
      </trkpt>
      <trkpt lat="50.36871" lon="2.98489">
        <ele>34.74</ele>
        <time>2015-05-10T14:11:09Z</time>
      </trkpt>
      <trkpt lat="50.36876" lon="2.98499">
        <ele>34.74</ele>
        <time>2015-05-10T14:11:23Z</time>
      </trkpt>
      <trkpt lat="50.36879" lon="2.98508">
        <ele>33.3</ele>
        <time>2015-05-10T14:11:34Z</time>
      </trkpt>
      <trkpt lat="50.36892" lon="2.98534">
        <ele>34.74</ele>
        <time>2015-05-10T14:11:50Z</time>
      </trkpt>
      <trkpt lat="50.36897" lon="2.98552">
        <ele>34.74</ele>
        <time>2015-05-10T14:12:00Z</time>
      </trkpt>
      <trkpt lat="50.369" lon="2.98561">
        <ele>34.74</ele>
        <time>2015-05-10T14:12:05Z</time>
      </trkpt>
      <trkpt lat="50.36913" lon="2.98585">
        <ele>34.74</ele>
        <time>2015-05-10T14:12:21Z</time>
      </trkpt>
      <trkpt lat="50.36914" lon="2.98587">
        <ele>34.74</ele>
        <time>2015-05-10T14:12:22Z</time>
      </trkpt>
      <trkpt lat="50.36918" lon="2.98607">
        <ele>34.26</ele>
        <time>2015-05-10T14:12:33Z</time>
      </trkpt>
      <trkpt lat="50.3692" lon="2.9861">
        <ele>34.74</ele>
        <time>2015-05-10T14:12:36Z</time>
      </trkpt>
      <trkpt lat="50.36924" lon="2.9861">
        <ele>34.26</ele>
        <time>2015-05-10T14:12:49Z</time>
      </trkpt>
      <trkpt lat="50.36923" lon="2.98612">
        <ele>34.26</ele>
        <time>2015-05-10T14:13:04Z</time>
      </trkpt>
      <trkpt lat="50.36923" lon="2.98611">
        <ele>34.26</ele>
        <time>2015-05-10T14:13:17Z</time>
      </trkpt>
      <trkpt lat="50.36923" lon="2.98611">
        <ele>34.26</ele>
        <time>2015-05-10T14:13:43Z</time>
      </trkpt>
      <trkpt lat="50.36922" lon="2.98611">
        <ele>34.26</ele>
        <time>2015-05-10T14:13:53Z</time>
      </trkpt>
      <trkpt lat="50.36923" lon="2.98619">
        <ele>34.26</ele>
        <time>2015-05-10T14:14:10Z</time>
      </trkpt>
      <trkpt lat="50.36924" lon="2.9863">
        <ele>34.26</ele>
        <time>2015-05-10T14:14:22Z</time>
      </trkpt>
      <trkpt lat="50.36924" lon="2.98634">
        <ele>34.26</ele>
        <time>2015-05-10T14:14:36Z</time>
      </trkpt>
      <trkpt lat="50.36927" lon="2.98634">
        <ele>34.26</ele>
        <time>2015-05-10T14:14:47Z</time>
      </trkpt>
      <trkpt lat="50.36928" lon="2.98635">
        <ele>34.26</ele>
        <time>2015-05-10T14:14:48Z</time>
      </trkpt>
      <trkpt lat="50.3693" lon="2.98637">
        <ele>32.82</ele>
        <time>2015-05-10T14:14:50Z</time>
      </trkpt>
      <trkpt lat="50.36934" lon="2.98638">
        <ele>32.82</ele>
        <time>2015-05-10T14:14:53Z</time>
      </trkpt>
      <trkpt lat="50.36944" lon="2.9866">
        <ele>32.82</ele>
        <time>2015-05-10T14:15:09Z</time>
      </trkpt>
      <trkpt lat="50.36944" lon="2.98663">
        <ele>32.82</ele>
        <time>2015-05-10T14:15:12Z</time>
      </trkpt>
      <trkpt lat="50.3694" lon="2.98669">
        <ele>32.82</ele>
        <time>2015-05-10T14:15:17Z</time>
      </trkpt>
      <trkpt lat="50.36933" lon="2.98672">
        <ele>32.82</ele>
        <time>2015-05-10T14:15:28Z</time>
      </trkpt>
      <trkpt lat="50.36932" lon="2.9867">
        <ele>32.82</ele>
        <time>2015-05-10T14:15:30Z</time>
      </trkpt>
      <trkpt lat="50.36927" lon="2.98657">
        <ele>32.34</ele>
        <time>2015-05-10T14:15:39Z</time>
      </trkpt>
      <trkpt lat="50.36905" lon="2.98679">
        <ele>31.86</ele>
        <time>2015-05-10T14:15:59Z</time>
      </trkpt>
      <trkpt lat="50.36899" lon="2.98686">
        <ele>31.86</ele>
        <time>2015-05-10T14:16:05Z</time>
      </trkpt>
      <trkpt lat="50.36893" lon="2.98692">
        <ele>31.38</ele>
        <time>2015-05-10T14:16:11Z</time>
      </trkpt>
      <trkpt lat="50.36873" lon="2.9871">
        <ele>30.42</ele>
        <time>2015-05-10T14:16:28Z</time>
      </trkpt>
      <trkpt lat="50.36863" lon="2.98719">
        <ele>30.42</ele>
        <time>2015-05-10T14:16:37Z</time>
      </trkpt>
      <trkpt lat="50.36857" lon="2.98724">
        <ele>30.42</ele>
        <time>2015-05-10T14:16:48Z</time>
      </trkpt>
      <trkpt lat="50.36856" lon="2.98728">
        <ele>30.42</ele>
        <time>2015-05-10T14:16:51Z</time>
      </trkpt>
      <trkpt lat="50.36854" lon="2.98731">
        <ele>30.42</ele>
        <time>2015-05-10T14:16:54Z</time>
      </trkpt>
      <trkpt lat="50.36847" lon="2.98736">
        <ele>30.42</ele>
        <time>2015-05-10T14:17:00Z</time>
      </trkpt>
      <trkpt lat="50.36843" lon="2.9874">
        <ele>30.42</ele>
        <time>2015-05-10T14:17:03Z</time>
      </trkpt>
      <trkpt lat="50.36839" lon="2.98744">
        <ele>30.42</ele>
        <time>2015-05-10T14:17:07Z</time>
      </trkpt>
      <trkpt lat="50.36837" lon="2.98745">
        <ele>30.42</ele>
        <time>2015-05-10T14:17:09Z</time>
      </trkpt>
      <trkpt lat="50.36833" lon="2.98755">
        <ele>30.42</ele>
        <time>2015-05-10T14:17:15Z</time>
      </trkpt>
      <trkpt lat="50.36833" lon="2.98759">
        <ele>30.42</ele>
        <time>2015-05-10T14:17:17Z</time>
      </trkpt>
      <trkpt lat="50.36839" lon="2.98765">
        <ele>30.42</ele>
        <time>2015-05-10T14:17:30Z</time>
      </trkpt>
      <trkpt lat="50.36839" lon="2.98766">
        <ele>29.94</ele>
        <time>2015-05-10T14:17:43Z</time>
      </trkpt>
      <trkpt lat="50.36837" lon="2.98768">
        <ele>29.94</ele>
        <time>2015-05-10T14:17:53Z</time>
      </trkpt>
      <trkpt lat="50.36837" lon="2.98769">
        <ele>29.94</ele>
        <time>2015-05-10T14:18:04Z</time>
      </trkpt>
      <trkpt lat="50.36837" lon="2.98767">
        <ele>29.94</ele>
        <time>2015-05-10T14:18:13Z</time>
      </trkpt>
      <trkpt lat="50.3684" lon="2.98762">
        <ele>29.94</ele>
        <time>2015-05-10T14:18:31Z</time>
      </trkpt>
      <trkpt lat="50.36838" lon="2.98764">
        <ele>29.46</ele>
        <time>2015-05-10T14:18:57Z</time>
      </trkpt>
      <trkpt lat="50.36839" lon="2.98765">
        <ele>29.46</ele>
        <time>2015-05-10T14:19:40Z</time>
      </trkpt>
      <trkpt lat="50.36838" lon="2.98768">
        <ele>29.94</ele>
        <time>2015-05-10T14:20:12Z</time>
      </trkpt>
      <trkpt lat="50.36839" lon="2.98766">
        <ele>29.94</ele>
        <time>2015-05-10T14:20:44Z</time>
      </trkpt>
      <trkpt lat="50.36838" lon="2.98764">
        <ele>29.94</ele>
        <time>2015-05-10T14:21:17Z</time>
      </trkpt>
      <trkpt lat="50.36838" lon="2.98765">
        <ele>29.94</ele>
        <time>2015-05-10T14:21:54Z</time>
      </trkpt>
      <trkpt lat="50.3684" lon="2.98763">
        <ele>29.46</ele>
        <time>2015-05-10T14:22:30Z</time>
      </trkpt>
      <trkpt lat="50.3684" lon="2.98762">
        <ele>29.46</ele>
        <time>2015-05-10T14:23:06Z</time>
      </trkpt>
      <trkpt lat="50.36838" lon="2.98762">
        <ele>29.46</ele>
        <time>2015-05-10T14:23:45Z</time>
      </trkpt>
      <trkpt lat="50.36838" lon="2.98761">
        <ele>30.42</ele>
        <time>2015-05-10T14:24:23Z</time>
      </trkpt>
      <trkpt lat="50.36838" lon="2.98761">
        <ele>31.38</ele>
        <time>2015-05-10T14:24:38Z</time>
      </trkpt>
      <trkpt lat="50.36838" lon="2.98762">
        <ele>30.42</ele>
        <time>2015-05-10T14:24:40Z</time>
      </trkpt>
      <trkpt lat="50.36837" lon="2.98765">
        <ele>30.42</ele>
        <time>2015-05-10T14:25:04Z</time>
      </trkpt>
      <trkpt lat="50.36836" lon="2.98764">
        <ele>30.42</ele>
        <time>2015-05-10T14:25:32Z</time>
      </trkpt>
      <trkpt lat="50.36837" lon="2.98764">
        <ele>30.42</ele>
        <time>2015-05-10T14:26:01Z</time>
      </trkpt>
      <trkpt lat="50.36838" lon="2.98766">
        <ele>30.42</ele>
        <time>2015-05-10T14:26:40Z</time>
      </trkpt>
      <trkpt lat="50.36838" lon="2.98765">
        <ele>30.42</ele>
        <time>2015-05-10T14:27:08Z</time>
      </trkpt>
      <trkpt lat="50.36838" lon="2.98763">
        <ele>29.94</ele>
        <time>2015-05-10T14:27:37Z</time>
      </trkpt>
      <trkpt lat="50.36839" lon="2.98764">
        <ele>29.94</ele>
        <time>2015-05-10T14:28:09Z</time>
      </trkpt>
      <trkpt lat="50.3684" lon="2.98763">
        <ele>29.94</ele>
        <time>2015-05-10T14:28:43Z</time>
      </trkpt>
      <trkpt lat="50.36839" lon="2.98762">
        <ele>29.94</ele>
        <time>2015-05-10T14:29:15Z</time>
      </trkpt>
      <trkpt lat="50.36838" lon="2.98763">
        <ele>29.94</ele>
        <time>2015-05-10T14:29:44Z</time>
      </trkpt>
      <trkpt lat="50.3684" lon="2.98767">
        <ele>30.9</ele>
        <time>2015-05-10T14:30:12Z</time>
      </trkpt>
      <trkpt lat="50.36841" lon="2.98768">
        <ele>30.9</ele>
        <time>2015-05-10T14:30:41Z</time>
      </trkpt>
      <trkpt lat="50.36841" lon="2.98767">
        <ele>29.46</ele>
        <time>2015-05-10T14:30:54Z</time>
      </trkpt>
      <trkpt lat="50.36841" lon="2.98766">
        <ele>34.74</ele>
        <time>2015-05-10T14:30:56Z</time>
      </trkpt>
      <trkpt lat="50.36841" lon="2.98766">
        <ele>30.9</ele>
        <time>2015-05-10T14:30:57Z</time>
      </trkpt>
      <trkpt lat="50.36839" lon="2.98767">
        <ele>30.9</ele>
        <time>2015-05-10T14:31:23Z</time>
      </trkpt>
      <trkpt lat="50.3684" lon="2.98767">
        <ele>30.9</ele>
        <time>2015-05-10T14:31:43Z</time>
      </trkpt>
      <trkpt lat="50.3684" lon="2.98766">
        <ele>31.38</ele>
        <time>2015-05-10T14:32:11Z</time>
      </trkpt>
      <trkpt lat="50.36838" lon="2.98769">
        <ele>31.38</ele>
        <time>2015-05-10T14:32:42Z</time>
      </trkpt>
      <trkpt lat="50.36839" lon="2.98768">
        <ele>29.94</ele>
        <time>2015-05-10T14:32:56Z</time>
      </trkpt>
      <trkpt lat="50.36841" lon="2.98768">
        <ele>30.42</ele>
        <time>2015-05-10T14:33:20Z</time>
      </trkpt>
      <trkpt lat="50.3684" lon="2.98769">
        <ele>30.42</ele>
        <time>2015-05-10T14:33:47Z</time>
      </trkpt>
      <trkpt lat="50.3684" lon="2.98769">
        <ele>29.94</ele>
        <time>2015-05-10T14:34:16Z</time>
      </trkpt>
      <trkpt lat="50.3684" lon="2.98768">
        <ele>29.94</ele>
        <time>2015-05-10T14:34:46Z</time>
      </trkpt>
      <trkpt lat="50.36837" lon="2.98769">
        <ele>29.94</ele>
        <time>2015-05-10T14:35:13Z</time>
      </trkpt>
      <trkpt lat="50.36836" lon="2.98766">
        <ele>29.94</ele>
        <time>2015-05-10T14:35:44Z</time>
      </trkpt>
      <trkpt lat="50.36837" lon="2.98769">
        <ele>29.94</ele>
        <time>2015-05-10T14:36:07Z</time>
      </trkpt>
      <trkpt lat="50.36836" lon="2.9877">
        <ele>31.38</ele>
        <time>2015-05-10T14:36:19Z</time>
      </trkpt>
      <trkpt lat="50.36836" lon="2.98774">
        <ele>31.38</ele>
        <time>2015-05-10T14:36:40Z</time>
      </trkpt>
      <trkpt lat="50.36839" lon="2.98768">
        <ele>31.38</ele>
        <time>2015-05-10T14:36:58Z</time>
      </trkpt>
      <trkpt lat="50.36836" lon="2.98768">
        <ele>31.38</ele>
        <time>2015-05-10T14:37:07Z</time>
      </trkpt>
      <trkpt lat="50.36832" lon="2.9876">
        <ele>30.42</ele>
        <time>2015-05-10T14:37:13Z</time>
      </trkpt>
      <trkpt lat="50.3682" lon="2.98737">
        <ele>30.42</ele>
        <time>2015-05-10T14:37:28Z</time>
      </trkpt>
      <trkpt lat="50.36809" lon="2.987">
        <ele>30.42</ele>
        <time>2015-05-10T14:37:49Z</time>
      </trkpt>
      <trkpt lat="50.36801" lon="2.98669">
        <ele>29.94</ele>
        <time>2015-05-10T14:38:05Z</time>
      </trkpt>
      <trkpt lat="50.36799" lon="2.98662">
        <ele>31.38</ele>
        <time>2015-05-10T14:38:09Z</time>
      </trkpt>
      <trkpt lat="50.36791" lon="2.9864">
        <ele>31.38</ele>
        <time>2015-05-10T14:38:21Z</time>
      </trkpt>
      <trkpt lat="50.36782" lon="2.98623">
        <ele>30.9</ele>
        <time>2015-05-10T14:38:32Z</time>
      </trkpt>
      <trkpt lat="50.36775" lon="2.9861">
        <ele>31.86</ele>
        <time>2015-05-10T14:38:42Z</time>
      </trkpt>
      <trkpt lat="50.36764" lon="2.98592">
        <ele>30.9</ele>
        <time>2015-05-10T14:38:56Z</time>
      </trkpt>
      <trkpt lat="50.36751" lon="2.98573">
        <ele>30.9</ele>
        <time>2015-05-10T14:39:10Z</time>
      </trkpt>
      <trkpt lat="50.36749" lon="2.98571">
        <ele>32.34</ele>
        <time>2015-05-10T14:39:14Z</time>
      </trkpt>
      <trkpt lat="50.36736" lon="2.98556">
        <ele>32.34</ele>
        <time>2015-05-10T14:39:28Z</time>
      </trkpt>
      <trkpt lat="50.36721" lon="2.9854">
        <ele>32.34</ele>
        <time>2015-05-10T14:39:46Z</time>
      </trkpt>
      <trkpt lat="50.36717" lon="2.98538">
        <ele>32.34</ele>
        <time>2015-05-10T14:39:50Z</time>
      </trkpt>
      <trkpt lat="50.36696" lon="2.98527">
        <ele>32.34</ele>
        <time>2015-05-10T14:40:08Z</time>
      </trkpt>
      <trkpt lat="50.36686" lon="2.9852">
        <ele>32.34</ele>
        <time>2015-05-10T14:40:16Z</time>
      </trkpt>
      <trkpt lat="50.36679" lon="2.98517">
        <ele>32.34</ele>
        <time>2015-05-10T14:40:22Z</time>
      </trkpt>
      <trkpt lat="50.36663" lon="2.98506">
        <ele>33.3</ele>
        <time>2015-05-10T14:40:36Z</time>
      </trkpt>
      <trkpt lat="50.3666" lon="2.98498">
        <ele>33.3</ele>
        <time>2015-05-10T14:40:41Z</time>
      </trkpt>
      <trkpt lat="50.36658" lon="2.98494">
        <ele>33.3</ele>
        <time>2015-05-10T14:40:44Z</time>
      </trkpt>
      <trkpt lat="50.36656" lon="2.98488">
        <ele>33.3</ele>
        <time>2015-05-10T14:40:48Z</time>
      </trkpt>
      <trkpt lat="50.36654" lon="2.98479">
        <ele>33.3</ele>
        <time>2015-05-10T14:41:02Z</time>
      </trkpt>
      <trkpt lat="50.36653" lon="2.98479">
        <ele>33.3</ele>
        <time>2015-05-10T14:41:05Z</time>
      </trkpt>
      <trkpt lat="50.36652" lon="2.98477">
        <ele>33.3</ele>
        <time>2015-05-10T14:41:08Z</time>
      </trkpt>
      <trkpt lat="50.36648" lon="2.98462">
        <ele>33.3</ele>
        <time>2015-05-10T14:41:17Z</time>
      </trkpt>
      <trkpt lat="50.36645" lon="2.9842">
        <ele>33.3</ele>
        <time>2015-05-10T14:41:37Z</time>
      </trkpt>
      <trkpt lat="50.3664" lon="2.98398">
        <ele>33.3</ele>
        <time>2015-05-10T14:41:49Z</time>
      </trkpt>
      <trkpt lat="50.3664" lon="2.98395">
        <ele>33.3</ele>
        <time>2015-05-10T14:41:51Z</time>
      </trkpt>
      <trkpt lat="50.36641" lon="2.98389">
        <ele>33.3</ele>
        <time>2015-05-10T14:41:56Z</time>
      </trkpt>
      <trkpt lat="50.36646" lon="2.9838">
        <ele>33.3</ele>
        <time>2015-05-10T14:42:06Z</time>
      </trkpt>
      <trkpt lat="50.36644" lon="2.98368">
        <ele>35.23</ele>
        <time>2015-05-10T14:42:17Z</time>
      </trkpt>
      <trkpt lat="50.36638" lon="2.98365">
        <ele>38.11</ele>
        <time>2015-05-10T14:42:28Z</time>
      </trkpt>
      <trkpt lat="50.36636" lon="2.98358">
        <ele>41.47</ele>
        <time>2015-05-10T14:42:40Z</time>
      </trkpt>
      <trkpt lat="50.36633" lon="2.9835">
        <ele>44.36</ele>
        <time>2015-05-10T14:42:53Z</time>
      </trkpt>
      <trkpt lat="50.36631" lon="2.98345">
        <ele>45.32</ele>
        <time>2015-05-10T14:43:05Z</time>
      </trkpt>
      <trkpt lat="50.36633" lon="2.98343">
        <ele>45.32</ele>
        <time>2015-05-10T14:43:16Z</time>
      </trkpt>
      <trkpt lat="50.36632" lon="2.98346">
        <ele>44.36</ele>
        <time>2015-05-10T14:43:30Z</time>
      </trkpt>
      <trkpt lat="50.36631" lon="2.98346">
        <ele>44.36</ele>
        <time>2015-05-10T14:43:45Z</time>
      </trkpt>
      <trkpt lat="50.36634" lon="2.98341">
        <ele>45.32</ele>
        <time>2015-05-10T14:44:03Z</time>
      </trkpt>
      <trkpt lat="50.36633" lon="2.98341">
        <ele>45.32</ele>
        <time>2015-05-10T14:44:18Z</time>
      </trkpt>
      <trkpt lat="50.36634" lon="2.98343">
        <ele>43.88</ele>
        <time>2015-05-10T14:44:33Z</time>
      </trkpt>
      <trkpt lat="50.3663" lon="2.98348">
        <ele>45.32</ele>
        <time>2015-05-10T14:44:44Z</time>
      </trkpt>
      <trkpt lat="50.3663" lon="2.98347">
        <ele>43.88</ele>
        <time>2015-05-10T14:45:02Z</time>
      </trkpt>
      <trkpt lat="50.36631" lon="2.98348">
        <ele>43.88</ele>
        <time>2015-05-10T14:45:33Z</time>
      </trkpt>
      <trkpt lat="50.3663" lon="2.98345">
        <ele>43.88</ele>
        <time>2015-05-10T14:45:55Z</time>
      </trkpt>
      <trkpt lat="50.36629" lon="2.98347">
        <ele>43.88</ele>
        <time>2015-05-10T14:46:24Z</time>
      </trkpt>
      <trkpt lat="50.36629" lon="2.98351">
        <ele>43.4</ele>
        <time>2015-05-10T14:46:33Z</time>
      </trkpt>
      <trkpt lat="50.36633" lon="2.98361">
        <ele>42.44</ele>
        <time>2015-05-10T14:46:45Z</time>
      </trkpt>
      <trkpt lat="50.36635" lon="2.98367">
        <ele>39.55</ele>
        <time>2015-05-10T14:46:55Z</time>
      </trkpt>
      <trkpt lat="50.3664" lon="2.98369">
        <ele>37.15</ele>
        <time>2015-05-10T14:47:04Z</time>
      </trkpt>
      <trkpt lat="50.36644" lon="2.98372">
        <ele>35.71</ele>
        <time>2015-05-10T14:47:09Z</time>
      </trkpt>
      <trkpt lat="50.36646" lon="2.98383">
        <ele>32.82</ele>
        <time>2015-05-10T14:47:19Z</time>
      </trkpt>
      <trkpt lat="50.36646" lon="2.98388">
        <ele>31.86</ele>
        <time>2015-05-10T14:47:22Z</time>
      </trkpt>
      <trkpt lat="50.36641" lon="2.98402">
        <ele>31.86</ele>
        <time>2015-05-10T14:47:35Z</time>
      </trkpt>
      <trkpt lat="50.36646" lon="2.98428">
        <ele>31.86</ele>
        <time>2015-05-10T14:47:53Z</time>
      </trkpt>
      <trkpt lat="50.3665" lon="2.98466">
        <ele>31.86</ele>
        <time>2015-05-10T14:48:13Z</time>
      </trkpt>
      <trkpt lat="50.36651" lon="2.98471">
        <ele>31.86</ele>
        <time>2015-05-10T14:48:16Z</time>
      </trkpt>
      <trkpt lat="50.36652" lon="2.98481">
        <ele>31.86</ele>
        <time>2015-05-10T14:48:21Z</time>
      </trkpt>
      <trkpt lat="50.36658" lon="2.98495">
        <ele>31.86</ele>
        <time>2015-05-10T14:48:31Z</time>
      </trkpt>
      <trkpt lat="50.36675" lon="2.98515">
        <ele>31.86</ele>
        <time>2015-05-10T14:48:50Z</time>
      </trkpt>
      <trkpt lat="50.36695" lon="2.98527">
        <ele>31.86</ele>
        <time>2015-05-10T14:49:07Z</time>
      </trkpt>
      <trkpt lat="50.36712" lon="2.98538">
        <ele>31.86</ele>
        <time>2015-05-10T14:49:22Z</time>
      </trkpt>
      <trkpt lat="50.36729" lon="2.98551">
        <ele>32.82</ele>
        <time>2015-05-10T14:49:38Z</time>
      </trkpt>
      <trkpt lat="50.36735" lon="2.98556">
        <ele>32.82</ele>
        <time>2015-05-10T14:49:43Z</time>
      </trkpt>
      <trkpt lat="50.36757" lon="2.9858">
        <ele>32.82</ele>
        <time>2015-05-10T14:50:05Z</time>
      </trkpt>
      <trkpt lat="50.36759" lon="2.98583">
        <ele>32.82</ele>
        <time>2015-05-10T14:50:07Z</time>
      </trkpt>
      <trkpt lat="50.36767" lon="2.98599">
        <ele>31.38</ele>
        <time>2015-05-10T14:50:19Z</time>
      </trkpt>
      <trkpt lat="50.36778" lon="2.98618">
        <ele>31.38</ele>
        <time>2015-05-10T14:50:31Z</time>
      </trkpt>
      <trkpt lat="50.36779" lon="2.98622">
        <ele>31.38</ele>
        <time>2015-05-10T14:50:33Z</time>
      </trkpt>
      <trkpt lat="50.36793" lon="2.98646">
        <ele>30.9</ele>
        <time>2015-05-10T14:50:49Z</time>
      </trkpt>
      <trkpt lat="50.36803" lon="2.98672">
        <ele>30.9</ele>
        <time>2015-05-10T14:51:05Z</time>
      </trkpt>
      <trkpt lat="50.36808" lon="2.98696">
        <ele>30.42</ele>
        <time>2015-05-10T14:51:19Z</time>
      </trkpt>
      <trkpt lat="50.3681" lon="2.98706">
        <ele>30.42</ele>
        <time>2015-05-10T14:51:25Z</time>
      </trkpt>
      <trkpt lat="50.36817" lon="2.98728">
        <ele>30.42</ele>
        <time>2015-05-10T14:51:38Z</time>
      </trkpt>
      <trkpt lat="50.36825" lon="2.98748">
        <ele>30.42</ele>
        <time>2015-05-10T14:51:49Z</time>
      </trkpt>
      <trkpt lat="50.3683" lon="2.9875">
        <ele>30.42</ele>
        <time>2015-05-10T14:51:53Z</time>
      </trkpt>
      <trkpt lat="50.36846" lon="2.98737">
        <ele>32.34</ele>
        <time>2015-05-10T14:52:11Z</time>
      </trkpt>
      <trkpt lat="50.36856" lon="2.98724">
        <ele>31.86</ele>
        <time>2015-05-10T14:52:20Z</time>
      </trkpt>
      <trkpt lat="50.3686" lon="2.98722">
        <ele>31.86</ele>
        <time>2015-05-10T14:52:23Z</time>
      </trkpt>
      <trkpt lat="50.36868" lon="2.98716">
        <ele>31.86</ele>
        <time>2015-05-10T14:52:30Z</time>
      </trkpt>
      <trkpt lat="50.36882" lon="2.98705">
        <ele>32.34</ele>
        <time>2015-05-10T14:52:42Z</time>
      </trkpt>
      <trkpt lat="50.36887" lon="2.98699">
        <ele>32.34</ele>
        <time>2015-05-10T14:52:47Z</time>
      </trkpt>
      <trkpt lat="50.36894" lon="2.98688">
        <ele>32.82</ele>
        <time>2015-05-10T14:52:55Z</time>
      </trkpt>
      <trkpt lat="50.36907" lon="2.98677">
        <ele>33.3</ele>
        <time>2015-05-10T14:53:07Z</time>
      </trkpt>
      <trkpt lat="50.36921" lon="2.98662">
        <ele>33.3</ele>
        <time>2015-05-10T14:53:21Z</time>
      </trkpt>
      <trkpt lat="50.36929" lon="2.98659">
        <ele>33.78</ele>
        <time>2015-05-10T14:53:28Z</time>
      </trkpt>
      <trkpt lat="50.36931" lon="2.98668">
        <ele>34.26</ele>
        <time>2015-05-10T14:53:33Z</time>
      </trkpt>
      <trkpt lat="50.36941" lon="2.9869">
        <ele>34.26</ele>
        <time>2015-05-10T14:53:48Z</time>
      </trkpt>
      <trkpt lat="50.36959" lon="2.98725">
        <ele>34.26</ele>
        <time>2015-05-10T14:54:12Z</time>
      </trkpt>
      <trkpt lat="50.36963" lon="2.98731">
        <ele>34.26</ele>
        <time>2015-05-10T14:54:17Z</time>
      </trkpt>
      <trkpt lat="50.36967" lon="2.98737">
        <ele>34.26</ele>
        <time>2015-05-10T14:54:21Z</time>
      </trkpt>
      <trkpt lat="50.36971" lon="2.98744">
        <ele>34.26</ele>
        <time>2015-05-10T14:54:25Z</time>
      </trkpt>
      <trkpt lat="50.36976" lon="2.98755">
        <ele>32.82</ele>
        <time>2015-05-10T14:54:33Z</time>
      </trkpt>
      <trkpt lat="50.36986" lon="2.98781">
        <ele>32.82</ele>
        <time>2015-05-10T14:54:49Z</time>
      </trkpt>
      <trkpt lat="50.36998" lon="2.988">
        <ele>32.82</ele>
        <time>2015-05-10T14:55:02Z</time>
      </trkpt>
      <trkpt lat="50.37006" lon="2.98823">
        <ele>32.82</ele>
        <time>2015-05-10T14:55:17Z</time>
      </trkpt>
      <trkpt lat="50.37013" lon="2.98831">
        <ele>32.82</ele>
        <time>2015-05-10T14:55:24Z</time>
      </trkpt>
      <trkpt lat="50.37018" lon="2.9884">
        <ele>32.82</ele>
        <time>2015-05-10T14:55:29Z</time>
      </trkpt>
      <trkpt lat="50.37029" lon="2.98868">
        <ele>32.34</ele>
        <time>2015-05-10T14:55:46Z</time>
      </trkpt>
      <trkpt lat="50.37037" lon="2.98878">
        <ele>32.34</ele>
        <time>2015-05-10T14:55:54Z</time>
      </trkpt>
      <trkpt lat="50.3704" lon="2.98885">
        <ele>31.86</ele>
        <time>2015-05-10T14:55:58Z</time>
      </trkpt>
      <trkpt lat="50.3705" lon="2.98907">
        <ele>31.86</ele>
        <time>2015-05-10T14:56:12Z</time>
      </trkpt>
      <trkpt lat="50.37062" lon="2.98929">
        <ele>31.38</ele>
        <time>2015-05-10T14:56:26Z</time>
      </trkpt>
      <trkpt lat="50.37077" lon="2.98945">
        <ele>31.38</ele>
        <time>2015-05-10T14:56:43Z</time>
      </trkpt>
      <trkpt lat="50.37088" lon="2.98952">
        <ele>31.38</ele>
        <time>2015-05-10T14:56:52Z</time>
      </trkpt>
      <trkpt lat="50.37092" lon="2.98955">
        <ele>31.38</ele>
        <time>2015-05-10T14:57:04Z</time>
      </trkpt>
      <trkpt lat="50.37092" lon="2.98955">
        <ele>31.38</ele>
        <time>2015-05-10T14:57:14Z</time>
      </trkpt>
      <trkpt lat="50.37107" lon="2.98981">
        <ele>31.38</ele>
        <time>2015-05-10T14:57:32Z</time>
      </trkpt>
      <trkpt lat="50.37113" lon="2.98994">
        <ele>31.38</ele>
        <time>2015-05-10T14:57:45Z</time>
      </trkpt>
      <trkpt lat="50.37113" lon="2.98994">
        <ele>31.38</ele>
        <time>2015-05-10T14:57:46Z</time>
      </trkpt>
      <trkpt lat="50.37127" lon="2.99028">
        <ele>31.38</ele>
        <time>2015-05-10T14:58:04Z</time>
      </trkpt>
      <trkpt lat="50.37132" lon="2.99039">
        <ele>31.38</ele>
        <time>2015-05-10T14:58:10Z</time>
      </trkpt>
      <trkpt lat="50.37137" lon="2.99038">
        <ele>32.82</ele>
        <time>2015-05-10T14:58:19Z</time>
      </trkpt>
      <trkpt lat="50.37141" lon="2.99037">
        <ele>32.82</ele>
        <time>2015-05-10T14:58:31Z</time>
      </trkpt>
      <trkpt lat="50.37142" lon="2.99036">
        <ele>32.82</ele>
        <time>2015-05-10T14:58:33Z</time>
      </trkpt>
      <trkpt lat="50.37145" lon="2.99036">
        <ele>32.82</ele>
        <time>2015-05-10T14:58:47Z</time>
      </trkpt>
      <trkpt lat="50.37138" lon="2.99035">
        <ele>32.82</ele>
        <time>2015-05-10T14:59:00Z</time>
      </trkpt>
      <trkpt lat="50.37134" lon="2.99037">
        <ele>32.82</ele>
        <time>2015-05-10T14:59:14Z</time>
      </trkpt>
      <trkpt lat="50.37134" lon="2.99039">
        <ele>31.38</ele>
        <time>2015-05-10T14:59:28Z</time>
      </trkpt>
      <trkpt lat="50.37135" lon="2.99038">
        <ele>31.38</ele>
        <time>2015-05-10T15:00:08Z</time>
      </trkpt>
      <trkpt lat="50.37138" lon="2.99037">
        <ele>31.38</ele>
        <time>2015-05-10T15:00:25Z</time>
      </trkpt>
      <trkpt lat="50.37136" lon="2.99037">
        <ele>31.38</ele>
        <time>2015-05-10T15:00:38Z</time>
      </trkpt>
      <trkpt lat="50.37135" lon="2.99039">
        <ele>32.82</ele>
        <time>2015-05-10T15:00:58Z</time>
      </trkpt>
      <trkpt lat="50.37138" lon="2.99039">
        <ele>32.82</ele>
        <time>2015-05-10T15:01:21Z</time>
      </trkpt>
      <trkpt lat="50.37137" lon="2.99039">
        <ele>32.82</ele>
        <time>2015-05-10T15:01:37Z</time>
      </trkpt>
      <trkpt lat="50.37131" lon="2.99035">
        <ele>32.34</ele>
        <time>2015-05-10T15:01:51Z</time>
      </trkpt>
      <trkpt lat="50.37135" lon="2.99037">
        <ele>32.34</ele>
        <time>2015-05-10T15:02:01Z</time>
      </trkpt>
      <trkpt lat="50.37135" lon="2.99037">
        <ele>31.38</ele>
        <time>2015-05-10T15:02:05Z</time>
      </trkpt>
      <trkpt lat="50.37135" lon="2.99037">
        <ele>32.82</ele>
        <time>2015-05-10T15:02:12Z</time>
      </trkpt>
      <trkpt lat="50.37136" lon="2.99038">
        <ele>31.38</ele>
        <time>2015-05-10T15:02:14Z</time>
      </trkpt>
      <trkpt lat="50.37136" lon="2.99038">
        <ele>30.9</ele>
        <time>2015-05-10T15:02:34Z</time>
      </trkpt>
      <trkpt lat="50.37136" lon="2.99039">
        <ele>30.9</ele>
        <time>2015-05-10T15:03:02Z</time>
      </trkpt>
      <trkpt lat="50.37137" lon="2.99038">
        <ele>30.9</ele>
        <time>2015-05-10T15:03:30Z</time>
      </trkpt>
      <trkpt lat="50.37134" lon="2.99042">
        <ele>31.38</ele>
        <time>2015-05-10T15:04:03Z</time>
      </trkpt>
      <trkpt lat="50.37135" lon="2.99038">
        <ele>32.34</ele>
        <time>2015-05-10T15:04:34Z</time>
      </trkpt>
      <trkpt lat="50.37133" lon="2.99038">
        <ele>32.34</ele>
        <time>2015-05-10T15:04:44Z</time>
      </trkpt>
      <trkpt lat="50.37127" lon="2.9904">
        <ele>32.34</ele>
        <time>2015-05-10T15:04:48Z</time>
      </trkpt>
      <trkpt lat="50.37113" lon="2.99008">
        <ele>32.34</ele>
        <time>2015-05-10T15:05:06Z</time>
      </trkpt>
      <trkpt lat="50.37096" lon="2.98974">
        <ele>32.34</ele>
        <time>2015-05-10T15:05:26Z</time>
      </trkpt>
      <trkpt lat="50.37078" lon="2.98941">
        <ele>32.34</ele>
        <time>2015-05-10T15:05:45Z</time>
      </trkpt>
      <trkpt lat="50.37071" lon="2.98945">
        <ele>32.34</ele>
        <time>2015-05-10T15:05:51Z</time>
      </trkpt>
      <trkpt lat="50.37059" lon="2.98977">
        <ele>30.9</ele>
        <time>2015-05-10T15:06:08Z</time>
      </trkpt>
      <trkpt lat="50.37049" lon="2.99006">
        <ele>30.42</ele>
        <time>2015-05-10T15:06:22Z</time>
      </trkpt>
      <trkpt lat="50.37051" lon="2.99026">
        <ele>30.42</ele>
        <time>2015-05-10T15:06:32Z</time>
      </trkpt>
      <trkpt lat="50.37055" lon="2.99051">
        <ele>30.42</ele>
        <time>2015-05-10T15:06:46Z</time>
      </trkpt>
      <trkpt lat="50.37056" lon="2.99054">
        <ele>30.42</ele>
        <time>2015-05-10T15:06:48Z</time>
      </trkpt>
      <trkpt lat="50.37057" lon="2.99058">
        <ele>30.42</ele>
        <time>2015-05-10T15:06:50Z</time>
      </trkpt>
      <trkpt lat="50.37056" lon="2.99075">
        <ele>30.42</ele>
        <time>2015-05-10T15:06:59Z</time>
      </trkpt>
      <trkpt lat="50.37058" lon="2.99079">
        <ele>30.42</ele>
        <time>2015-05-10T15:07:02Z</time>
      </trkpt>
      <trkpt lat="50.37059" lon="2.99091">
        <ele>30.42</ele>
        <time>2015-05-10T15:07:07Z</time>
      </trkpt>
      <trkpt lat="50.37062" lon="2.99109">
        <ele>29.94</ele>
        <time>2015-05-10T15:07:17Z</time>
      </trkpt>
      <trkpt lat="50.37065" lon="2.99133">
        <ele>29.94</ele>
        <time>2015-05-10T15:07:28Z</time>
      </trkpt>
      <trkpt lat="50.37065" lon="2.99136">
        <ele>29.94</ele>
        <time>2015-05-10T15:07:30Z</time>
      </trkpt>
      <trkpt lat="50.37065" lon="2.99154">
        <ele>29.94</ele>
        <time>2015-05-10T15:07:38Z</time>
      </trkpt>
      <trkpt lat="50.37066" lon="2.99158">
        <ele>29.94</ele>
        <time>2015-05-10T15:07:40Z</time>
      </trkpt>
      <trkpt lat="50.37066" lon="2.99165">
        <ele>29.94</ele>
        <time>2015-05-10T15:07:43Z</time>
      </trkpt>
      <trkpt lat="50.37067" lon="2.9917">
        <ele>29.94</ele>
        <time>2015-05-10T15:07:46Z</time>
      </trkpt>
      <trkpt lat="50.37068" lon="2.99175">
        <ele>29.94</ele>
        <time>2015-05-10T15:07:49Z</time>
      </trkpt>
      <trkpt lat="50.37069" lon="2.99182">
        <ele>29.94</ele>
        <time>2015-05-10T15:07:53Z</time>
      </trkpt>
      <trkpt lat="50.37073" lon="2.99202">
        <ele>29.94</ele>
        <time>2015-05-10T15:08:03Z</time>
      </trkpt>
      <trkpt lat="50.37076" lon="2.9922">
        <ele>28.98</ele>
        <time>2015-05-10T15:08:13Z</time>
      </trkpt>
      <trkpt lat="50.37081" lon="2.99256">
        <ele>31.86</ele>
        <time>2015-05-10T15:08:31Z</time>
      </trkpt>
      <trkpt lat="50.37082" lon="2.99262">
        <ele>31.86</ele>
        <time>2015-05-10T15:08:34Z</time>
      </trkpt>
      <trkpt lat="50.37083" lon="2.99266">
        <ele>30.42</ele>
        <time>2015-05-10T15:08:36Z</time>
      </trkpt>
      <trkpt lat="50.37084" lon="2.99276">
        <ele>30.42</ele>
        <time>2015-05-10T15:08:41Z</time>
      </trkpt>
      <trkpt lat="50.37084" lon="2.9928">
        <ele>30.42</ele>
        <time>2015-05-10T15:08:43Z</time>
      </trkpt>
      <trkpt lat="50.3708" lon="2.99289">
        <ele>30.42</ele>
        <time>2015-05-10T15:08:50Z</time>
      </trkpt>
      <trkpt lat="50.37062" lon="2.9929">
        <ele>30.42</ele>
        <time>2015-05-10T15:09:04Z</time>
      </trkpt>
      <trkpt lat="50.37058" lon="2.99291">
        <ele>30.42</ele>
        <time>2015-05-10T15:09:08Z</time>
      </trkpt>
      <trkpt lat="50.37041" lon="2.9928">
        <ele>30.42</ele>
        <time>2015-05-10T15:09:25Z</time>
      </trkpt>
      <trkpt lat="50.37021" lon="2.99274">
        <ele>30.42</ele>
        <time>2015-05-10T15:09:40Z</time>
      </trkpt>
      <trkpt lat="50.37006" lon="2.99268">
        <ele>31.86</ele>
        <time>2015-05-10T15:09:50Z</time>
      </trkpt>
      <trkpt lat="50.37003" lon="2.99267">
        <ele>30.9</ele>
        <time>2015-05-10T15:09:52Z</time>
      </trkpt>
      <trkpt lat="50.37002" lon="2.99266">
        <ele>30.9</ele>
        <time>2015-05-10T15:09:53Z</time>
      </trkpt>
      <trkpt lat="50.36995" lon="2.9927">
        <ele>30.9</ele>
        <time>2015-05-10T15:10:00Z</time>
      </trkpt>
      <trkpt lat="50.37007" lon="2.99295">
        <ele>30.9</ele>
        <time>2015-05-10T15:10:18Z</time>
      </trkpt>
      <trkpt lat="50.37011" lon="2.993">
        <ele>29.46</ele>
        <time>2015-05-10T15:10:34Z</time>
      </trkpt>
      <trkpt lat="50.37009" lon="2.99299">
        <ele>29.46</ele>
        <time>2015-05-10T15:10:36Z</time>
      </trkpt>
      <trkpt lat="50.36998" lon="2.99288">
        <ele>29.46</ele>
        <time>2015-05-10T15:10:46Z</time>
      </trkpt>
      <trkpt lat="50.36995" lon="2.99274">
        <ele>29.46</ele>
        <time>2015-05-10T15:10:54Z</time>
      </trkpt>
      <trkpt lat="50.36994" lon="2.99268">
        <ele>29.46</ele>
        <time>2015-05-10T15:10:57Z</time>
      </trkpt>
      <trkpt lat="50.3698" lon="2.99258">
        <ele>29.46</ele>
        <time>2015-05-10T15:11:09Z</time>
      </trkpt>
      <trkpt lat="50.36975" lon="2.99255">
        <ele>29.46</ele>
        <time>2015-05-10T15:11:13Z</time>
      </trkpt>
      <trkpt lat="50.36957" lon="2.9925">
        <ele>29.46</ele>
        <time>2015-05-10T15:11:27Z</time>
      </trkpt>
      <trkpt lat="50.36943" lon="2.99244">
        <ele>30.9</ele>
        <time>2015-05-10T15:11:41Z</time>
      </trkpt>
      <trkpt lat="50.36927" lon="2.99239">
        <ele>30.9</ele>
        <time>2015-05-10T15:11:53Z</time>
      </trkpt>
      <trkpt lat="50.36915" lon="2.99234">
        <ele>30.9</ele>
        <time>2015-05-10T15:12:03Z</time>
      </trkpt>
      <trkpt lat="50.36905" lon="2.99231">
        <ele>30.9</ele>
        <time>2015-05-10T15:12:11Z</time>
      </trkpt>
      <trkpt lat="50.36887" lon="2.99227">
        <ele>30.9</ele>
        <time>2015-05-10T15:12:25Z</time>
      </trkpt>
      <trkpt lat="50.36886" lon="2.9923">
        <ele>31.38</ele>
        <time>2015-05-10T15:12:29Z</time>
      </trkpt>
      <trkpt lat="50.36887" lon="2.99233">
        <ele>31.38</ele>
        <time>2015-05-10T15:12:33Z</time>
      </trkpt>
      <trkpt lat="50.36889" lon="2.99253">
        <ele>29.94</ele>
        <time>2015-05-10T15:12:44Z</time>
      </trkpt>
      <trkpt lat="50.36889" lon="2.99254">
        <ele>29.94</ele>
        <time>2015-05-10T15:12:45Z</time>
      </trkpt>
      <trkpt lat="50.36892" lon="2.99276">
        <ele>31.38</ele>
        <time>2015-05-10T15:12:57Z</time>
      </trkpt>
      <trkpt lat="50.36898" lon="2.99311">
        <ele>31.38</ele>
        <time>2015-05-10T15:13:14Z</time>
      </trkpt>
      <trkpt lat="50.36902" lon="2.99341">
        <ele>31.38</ele>
        <time>2015-05-10T15:13:30Z</time>
      </trkpt>
      <trkpt lat="50.36903" lon="2.99351">
        <ele>31.38</ele>
        <time>2015-05-10T15:13:35Z</time>
      </trkpt>
      <trkpt lat="50.36905" lon="2.99377">
        <ele>31.38</ele>
        <time>2015-05-10T15:13:49Z</time>
      </trkpt>
      <trkpt lat="50.36906" lon="2.99407">
        <ele>31.38</ele>
        <time>2015-05-10T15:14:04Z</time>
      </trkpt>
      <trkpt lat="50.36906" lon="2.99414">
        <ele>31.38</ele>
        <time>2015-05-10T15:14:08Z</time>
      </trkpt>
      <trkpt lat="50.36909" lon="2.99449">
        <ele>30.9</ele>
        <time>2015-05-10T15:14:26Z</time>
      </trkpt>
      <trkpt lat="50.36909" lon="2.99482">
        <ele>31.38</ele>
        <time>2015-05-10T15:14:43Z</time>
      </trkpt>
      <trkpt lat="50.3691" lon="2.9951">
        <ele>31.38</ele>
        <time>2015-05-10T15:14:57Z</time>
      </trkpt>
      <trkpt lat="50.3691" lon="2.99534">
        <ele>30.42</ele>
        <time>2015-05-10T15:15:11Z</time>
      </trkpt>
      <trkpt lat="50.36909" lon="2.99541">
        <ele>30.42</ele>
        <time>2015-05-10T15:15:15Z</time>
      </trkpt>
      <trkpt lat="50.3691" lon="2.99566">
        <ele>30.42</ele>
        <time>2015-05-10T15:15:27Z</time>
      </trkpt>
      <trkpt lat="50.3691" lon="2.99583">
        <ele>30.42</ele>
        <time>2015-05-10T15:15:35Z</time>
      </trkpt>
      <trkpt lat="50.36908" lon="2.99603">
        <ele>30.42</ele>
        <time>2015-05-10T15:15:45Z</time>
      </trkpt>
      <trkpt lat="50.36907" lon="2.99613">
        <ele>31.86</ele>
        <time>2015-05-10T15:15:50Z</time>
      </trkpt>
      <trkpt lat="50.36907" lon="2.99617">
        <ele>30.42</ele>
        <time>2015-05-10T15:15:52Z</time>
      </trkpt>
      <trkpt lat="50.36909" lon="2.99652">
        <ele>30.42</ele>
        <time>2015-05-10T15:16:11Z</time>
      </trkpt>
      <trkpt lat="50.36909" lon="2.99668">
        <ele>30.42</ele>
        <time>2015-05-10T15:16:20Z</time>
      </trkpt>
      <trkpt lat="50.36909" lon="2.99701">
        <ele>31.86</ele>
        <time>2015-05-10T15:16:37Z</time>
      </trkpt>
      <trkpt lat="50.36909" lon="2.99703">
        <ele>31.86</ele>
        <time>2015-05-10T15:16:38Z</time>
      </trkpt>
      <trkpt lat="50.3691" lon="2.99733">
        <ele>31.38</ele>
        <time>2015-05-10T15:16:52Z</time>
      </trkpt>
      <trkpt lat="50.36909" lon="2.99761">
        <ele>31.38</ele>
        <time>2015-05-10T15:17:07Z</time>
      </trkpt>
      <trkpt lat="50.36909" lon="2.99792">
        <ele>31.38</ele>
        <time>2015-05-10T15:17:23Z</time>
      </trkpt>
      <trkpt lat="50.36909" lon="2.99818">
        <ele>31.38</ele>
        <time>2015-05-10T15:17:38Z</time>
      </trkpt>
      <trkpt lat="50.36911" lon="2.99851">
        <ele>31.38</ele>
        <time>2015-05-10T15:17:56Z</time>
      </trkpt>
      <trkpt lat="50.3691" lon="2.99881">
        <ele>31.38</ele>
        <time>2015-05-10T15:18:13Z</time>
      </trkpt>
      <trkpt lat="50.36913" lon="2.99903">
        <ele>31.38</ele>
        <time>2015-05-10T15:18:25Z</time>
      </trkpt>
      <trkpt lat="50.36921" lon="2.999">
        <ele>31.38</ele>
        <time>2015-05-10T15:18:33Z</time>
      </trkpt>
      <trkpt lat="50.36926" lon="2.99898">
        <ele>30.42</ele>
        <time>2015-05-10T15:18:37Z</time>
      </trkpt>
      <trkpt lat="50.36929" lon="2.99897">
        <ele>30.42</ele>
        <time>2015-05-10T15:18:40Z</time>
      </trkpt>
      <trkpt lat="50.36947" lon="2.99891">
        <ele>29.46</ele>
        <time>2015-05-10T15:18:56Z</time>
      </trkpt>
      <trkpt lat="50.36965" lon="2.99883">
        <ele>29.46</ele>
        <time>2015-05-10T15:19:11Z</time>
      </trkpt>
      <trkpt lat="50.36978" lon="2.99879">
        <ele>28.98</ele>
        <time>2015-05-10T15:19:21Z</time>
      </trkpt>
      <trkpt lat="50.36985" lon="2.99877">
        <ele>28.98</ele>
        <time>2015-05-10T15:19:28Z</time>
      </trkpt>
      <trkpt lat="50.36995" lon="2.99875">
        <ele>28.5</ele>
        <time>2015-05-10T15:19:45Z</time>
      </trkpt>
      <trkpt lat="50.36997" lon="2.99875">
        <ele>28.5</ele>
        <time>2015-05-10T15:19:59Z</time>
      </trkpt>
      <trkpt lat="50.36996" lon="2.99875">
        <ele>28.5</ele>
        <time>2015-05-10T15:20:17Z</time>
      </trkpt>
      <trkpt lat="50.36995" lon="2.99876">
        <ele>28.02</ele>
        <time>2015-05-10T15:20:43Z</time>
      </trkpt>
      <trkpt lat="50.36995" lon="2.99876">
        <ele>28.02</ele>
        <time>2015-05-10T15:21:09Z</time>
      </trkpt>
      <trkpt lat="50.36998" lon="2.99874">
        <ele>28.02</ele>
        <time>2015-05-10T15:21:24Z</time>
      </trkpt>
      <trkpt lat="50.36996" lon="2.99874">
        <ele>28.02</ele>
        <time>2015-05-10T15:21:37Z</time>
      </trkpt>
      <trkpt lat="50.37001" lon="2.99865">
        <ele>28.02</ele>
        <time>2015-05-10T15:21:48Z</time>
      </trkpt>
      <trkpt lat="50.37" lon="2.99864">
        <ele>28.02</ele>
        <time>2015-05-10T15:21:58Z</time>
      </trkpt>
      <trkpt lat="50.36998" lon="2.99872">
        <ele>28.02</ele>
        <time>2015-05-10T15:22:10Z</time>
      </trkpt>
      <trkpt lat="50.36995" lon="2.99872">
        <ele>28.02</ele>
        <time>2015-05-10T15:22:23Z</time>
      </trkpt>
      <trkpt lat="50.36997" lon="2.99876">
        <ele>28.02</ele>
        <time>2015-05-10T15:22:38Z</time>
      </trkpt>
      <trkpt lat="50.36997" lon="2.99874">
        <ele>28.02</ele>
        <time>2015-05-10T15:22:53Z</time>
      </trkpt>
      <trkpt lat="50.36996" lon="2.99875">
        <ele>28.02</ele>
        <time>2015-05-10T15:23:08Z</time>
      </trkpt>
      <trkpt lat="50.36996" lon="2.99873">
        <ele>28.02</ele>
        <time>2015-05-10T15:23:27Z</time>
      </trkpt>
      <trkpt lat="50.36991" lon="2.99869">
        <ele>28.02</ele>
        <time>2015-05-10T15:23:40Z</time>
      </trkpt>
      <trkpt lat="50.36989" lon="2.99868">
        <ele>27.53</ele>
        <time>2015-05-10T15:23:56Z</time>
      </trkpt>
      <trkpt lat="50.36994" lon="2.99873">
        <ele>27.53</ele>
        <time>2015-05-10T15:24:10Z</time>
      </trkpt>
      <trkpt lat="50.36998" lon="2.99873">
        <ele>27.53</ele>
        <time>2015-05-10T15:24:24Z</time>
      </trkpt>
      <trkpt lat="50.36999" lon="2.99873">
        <ele>27.53</ele>
        <time>2015-05-10T15:24:47Z</time>
      </trkpt>
      <trkpt lat="50.37001" lon="2.99874">
        <ele>27.53</ele>
        <time>2015-05-10T15:25:05Z</time>
      </trkpt>
      <trkpt lat="50.37001" lon="2.99873">
        <ele>27.53</ele>
        <time>2015-05-10T15:25:13Z</time>
      </trkpt>
      <trkpt lat="50.37004" lon="2.99871">
        <ele>27.53</ele>
        <time>2015-05-10T15:25:17Z</time>
      </trkpt>
      <trkpt lat="50.37008" lon="2.99871">
        <ele>27.05</ele>
        <time>2015-05-10T15:25:22Z</time>
      </trkpt>
      <trkpt lat="50.37005" lon="2.9987">
        <ele>27.05</ele>
        <time>2015-05-10T15:25:24Z</time>
      </trkpt>
      <trkpt lat="50.37011" lon="2.9987">
        <ele>27.05</ele>
        <time>2015-05-10T15:25:35Z</time>
      </trkpt>
      <trkpt lat="50.37011" lon="2.99871">
        <ele>27.05</ele>
        <time>2015-05-10T15:25:46Z</time>
      </trkpt>
      <trkpt lat="50.36998" lon="2.99875">
        <ele>26.57</ele>
        <time>2015-05-10T15:25:59Z</time>
      </trkpt>
      <trkpt lat="50.36994" lon="2.99875">
        <ele>26.57</ele>
        <time>2015-05-10T15:26:14Z</time>
      </trkpt>
      <trkpt lat="50.36996" lon="2.99875">
        <ele>26.57</ele>
        <time>2015-05-10T15:26:33Z</time>
      </trkpt>
      <trkpt lat="50.36996" lon="2.99878">
        <ele>28.02</ele>
        <time>2015-05-10T15:26:49Z</time>
      </trkpt>
      <trkpt lat="50.36994" lon="2.99876">
        <ele>28.02</ele>
        <time>2015-05-10T15:27:00Z</time>
      </trkpt>
      <trkpt lat="50.36994" lon="2.99872">
        <ele>28.02</ele>
        <time>2015-05-10T15:27:13Z</time>
      </trkpt>
      <trkpt lat="50.36995" lon="2.99871">
        <ele>28.02</ele>
        <time>2015-05-10T15:27:31Z</time>
      </trkpt>
      <trkpt lat="50.36999" lon="2.99876">
        <ele>27.53</ele>
        <time>2015-05-10T15:28:01Z</time>
      </trkpt>
      <trkpt lat="50.36999" lon="2.99874">
        <ele>27.53</ele>
        <time>2015-05-10T15:28:25Z</time>
      </trkpt>
      <trkpt lat="50.37003" lon="2.99876">
        <ele>26.57</ele>
        <time>2015-05-10T15:28:58Z</time>
      </trkpt>
      <trkpt lat="50.37002" lon="2.99879">
        <ele>26.57</ele>
        <time>2015-05-10T15:29:32Z</time>
      </trkpt>
      <trkpt lat="50.37002" lon="2.99876">
        <ele>26.57</ele>
        <time>2015-05-10T15:30:05Z</time>
      </trkpt>
      <trkpt lat="50.36991" lon="2.99872">
        <ele>26.57</ele>
        <time>2015-05-10T15:30:25Z</time>
      </trkpt>
      <trkpt lat="50.36993" lon="2.99873">
        <ele>26.57</ele>
        <time>2015-05-10T15:30:35Z</time>
      </trkpt>
      <trkpt lat="50.36991" lon="2.99867">
        <ele>26.57</ele>
        <time>2015-05-10T15:30:48Z</time>
      </trkpt>
      <trkpt lat="50.36993" lon="2.99865">
        <ele>26.57</ele>
        <time>2015-05-10T15:31:06Z</time>
      </trkpt>
      <trkpt lat="50.36993" lon="2.99866">
        <ele>26.57</ele>
        <time>2015-05-10T15:31:18Z</time>
      </trkpt>
      <trkpt lat="50.36992" lon="2.99865">
        <ele>26.57</ele>
        <time>2015-05-10T15:31:27Z</time>
      </trkpt>
      <trkpt lat="50.36993" lon="2.99862">
        <ele>26.57</ele>
        <time>2015-05-10T15:31:36Z</time>
      </trkpt>
      <trkpt lat="50.36996" lon="2.99863">
        <ele>26.57</ele>
        <time>2015-05-10T15:31:48Z</time>
      </trkpt>
      <trkpt lat="50.36996" lon="2.99865">
        <ele>26.57</ele>
        <time>2015-05-10T15:32:09Z</time>
      </trkpt>
      <trkpt lat="50.36997" lon="2.99865">
        <ele>26.57</ele>
        <time>2015-05-10T15:32:21Z</time>
      </trkpt>
      <trkpt lat="50.36999" lon="2.99864">
        <ele>26.57</ele>
        <time>2015-05-10T15:32:39Z</time>
      </trkpt>
      <trkpt lat="50.36996" lon="2.99863">
        <ele>26.57</ele>
        <time>2015-05-10T15:32:55Z</time>
      </trkpt>
      <trkpt lat="50.36997" lon="2.99871">
        <ele>27.53</ele>
        <time>2015-05-10T15:33:12Z</time>
      </trkpt>
      <trkpt lat="50.36997" lon="2.9987">
        <ele>27.53</ele>
        <time>2015-05-10T15:33:26Z</time>
      </trkpt>
      <trkpt lat="50.36996" lon="2.9987">
        <ele>27.53</ele>
        <time>2015-05-10T15:33:50Z</time>
      </trkpt>
      <trkpt lat="50.3699" lon="2.99875">
        <ele>27.53</ele>
        <time>2015-05-10T15:34:09Z</time>
      </trkpt>
      <trkpt lat="50.36992" lon="2.99877">
        <ele>27.53</ele>
        <time>2015-05-10T15:34:24Z</time>
      </trkpt>
      <trkpt lat="50.36991" lon="2.99876">
        <ele>27.53</ele>
        <time>2015-05-10T15:34:46Z</time>
      </trkpt>
      <trkpt lat="50.36991" lon="2.99875">
        <ele>27.53</ele>
        <time>2015-05-10T15:35:23Z</time>
      </trkpt>
      <trkpt lat="50.36996" lon="2.99873">
        <ele>28.02</ele>
        <time>2015-05-10T15:35:41Z</time>
      </trkpt>
      <trkpt lat="50.36995" lon="2.99874">
        <ele>28.02</ele>
        <time>2015-05-10T15:35:59Z</time>
      </trkpt>
      <trkpt lat="50.36991" lon="2.99874">
        <ele>28.02</ele>
        <time>2015-05-10T15:36:15Z</time>
      </trkpt>
      <trkpt lat="50.36992" lon="2.99876">
        <ele>28.5</ele>
        <time>2015-05-10T15:36:33Z</time>
      </trkpt>
      <trkpt lat="50.36993" lon="2.99876">
        <ele>28.02</ele>
        <time>2015-05-10T15:36:54Z</time>
      </trkpt>
      <trkpt lat="50.36989" lon="2.99875">
        <ele>28.02</ele>
        <time>2015-05-10T15:37:25Z</time>
      </trkpt>
      <trkpt lat="50.36987" lon="2.99874">
        <ele>28.02</ele>
        <time>2015-05-10T15:37:54Z</time>
      </trkpt>
      <trkpt lat="50.36988" lon="2.99875">
        <ele>26.57</ele>
        <time>2015-05-10T15:38:30Z</time>
      </trkpt>
      <trkpt lat="50.3699" lon="2.9988">
        <ele>26.57</ele>
        <time>2015-05-10T15:39:04Z</time>
      </trkpt>
      <trkpt lat="50.36992" lon="2.99878">
        <ele>26.57</ele>
        <time>2015-05-10T15:39:29Z</time>
      </trkpt>
      <trkpt lat="50.36995" lon="2.99875">
        <ele>26.57</ele>
        <time>2015-05-10T15:39:46Z</time>
      </trkpt>
      <trkpt lat="50.36993" lon="2.99876">
        <ele>26.09</ele>
        <time>2015-05-10T15:39:59Z</time>
      </trkpt>
      <trkpt lat="50.36993" lon="2.99876">
        <ele>27.05</ele>
        <time>2015-05-10T15:40:24Z</time>
      </trkpt>
      <trkpt lat="50.36994" lon="2.99877">
        <ele>27.05</ele>
        <time>2015-05-10T15:40:49Z</time>
      </trkpt>
      <trkpt lat="50.36994" lon="2.99874">
        <ele>27.05</ele>
        <time>2015-05-10T15:41:19Z</time>
      </trkpt>
      <trkpt lat="50.36995" lon="2.99874">
        <ele>27.05</ele>
        <time>2015-05-10T15:41:53Z</time>
      </trkpt>
      <trkpt lat="50.36995" lon="2.99873">
        <ele>27.05</ele>
        <time>2015-05-10T15:42:03Z</time>
      </trkpt>
      <trkpt lat="50.36998" lon="2.99871">
        <ele>27.05</ele>
        <time>2015-05-10T15:42:06Z</time>
      </trkpt>
      <trkpt lat="50.37006" lon="2.99868">
        <ele>27.05</ele>
        <time>2015-05-10T15:42:16Z</time>
      </trkpt>
      <trkpt lat="50.37015" lon="2.99864">
        <ele>27.05</ele>
        <time>2015-05-10T15:42:29Z</time>
      </trkpt>
      <trkpt lat="50.37015" lon="2.99861">
        <ele>25.61</ele>
        <time>2015-05-10T15:42:31Z</time>
      </trkpt>
      <trkpt lat="50.37032" lon="2.99856">
        <ele>25.61</ele>
        <time>2015-05-10T15:42:44Z</time>
      </trkpt>
      <trkpt lat="50.37041" lon="2.99855">
        <ele>25.13</ele>
        <time>2015-05-10T15:42:51Z</time>
      </trkpt>
      <trkpt lat="50.37044" lon="2.99856">
        <ele>25.13</ele>
        <time>2015-05-10T15:42:54Z</time>
      </trkpt>
      <trkpt lat="50.37058" lon="2.99849">
        <ele>25.13</ele>
        <time>2015-05-10T15:43:05Z</time>
      </trkpt>
      <trkpt lat="50.37062" lon="2.99847">
        <ele>25.13</ele>
        <time>2015-05-10T15:43:08Z</time>
      </trkpt>
      <trkpt lat="50.37067" lon="2.99846">
        <ele>25.13</ele>
        <time>2015-05-10T15:43:12Z</time>
      </trkpt>
      <trkpt lat="50.37081" lon="2.99836">
        <ele>26.57</ele>
        <time>2015-05-10T15:43:25Z</time>
      </trkpt>
      <trkpt lat="50.37096" lon="2.99806">
        <ele>26.09</ele>
        <time>2015-05-10T15:43:42Z</time>
      </trkpt>
      <trkpt lat="50.37115" lon="2.99772">
        <ele>26.57</ele>
        <time>2015-05-10T15:44:02Z</time>
      </trkpt>
      <trkpt lat="50.37138" lon="2.99759">
        <ele>26.57</ele>
        <time>2015-05-10T15:44:22Z</time>
      </trkpt>
      <trkpt lat="50.37161" lon="2.9975">
        <ele>26.57</ele>
        <time>2015-05-10T15:44:39Z</time>
      </trkpt>
      <trkpt lat="50.37172" lon="2.99745">
        <ele>26.57</ele>
        <time>2015-05-10T15:44:48Z</time>
      </trkpt>
      <trkpt lat="50.37174" lon="2.99741">
        <ele>26.57</ele>
        <time>2015-05-10T15:44:51Z</time>
      </trkpt>
      <trkpt lat="50.37164" lon="2.99714">
        <ele>26.57</ele>
        <time>2015-05-10T15:45:07Z</time>
      </trkpt>
      <trkpt lat="50.37158" lon="2.99701">
        <ele>26.57</ele>
        <time>2015-05-10T15:45:16Z</time>
      </trkpt>
      <trkpt lat="50.37149" lon="2.99672">
        <ele>27.05</ele>
        <time>2015-05-10T15:45:31Z</time>
      </trkpt>
      <trkpt lat="50.37149" lon="2.99671">
        <ele>27.05</ele>
        <time>2015-05-10T15:45:32Z</time>
      </trkpt>
      <trkpt lat="50.37145" lon="2.99664">
        <ele>27.05</ele>
        <time>2015-05-10T15:45:36Z</time>
      </trkpt>
      <trkpt lat="50.37128" lon="2.99627">
        <ele>27.05</ele>
        <time>2015-05-10T15:45:57Z</time>
      </trkpt>
      <trkpt lat="50.37122" lon="2.99611">
        <ele>27.05</ele>
        <time>2015-05-10T15:46:06Z</time>
      </trkpt>
      <trkpt lat="50.37111" lon="2.99578">
        <ele>27.05</ele>
        <time>2015-05-10T15:46:25Z</time>
      </trkpt>
      <trkpt lat="50.37109" lon="2.99571">
        <ele>27.05</ele>
        <time>2015-05-10T15:46:30Z</time>
      </trkpt>
      <trkpt lat="50.37107" lon="2.99558">
        <ele>27.05</ele>
        <time>2015-05-10T15:46:38Z</time>
      </trkpt>
      <trkpt lat="50.37103" lon="2.99538">
        <ele>27.05</ele>
        <time>2015-05-10T15:46:53Z</time>
      </trkpt>
      <trkpt lat="50.37097" lon="2.99513">
        <ele>26.57</ele>
        <time>2015-05-10T15:47:06Z</time>
      </trkpt>
      <trkpt lat="50.37091" lon="2.99493">
        <ele>26.57</ele>
        <time>2015-05-10T15:47:15Z</time>
      </trkpt>
      <trkpt lat="50.37089" lon="2.99485">
        <ele>26.57</ele>
        <time>2015-05-10T15:47:18Z</time>
      </trkpt>
      <trkpt lat="50.37081" lon="2.99451">
        <ele>26.57</ele>
        <time>2015-05-10T15:47:35Z</time>
      </trkpt>
      <trkpt lat="50.37081" lon="2.99448">
        <ele>26.57</ele>
        <time>2015-05-10T15:47:37Z</time>
      </trkpt>
      <trkpt lat="50.37078" lon="2.99438">
        <ele>26.57</ele>
        <time>2015-05-10T15:47:42Z</time>
      </trkpt>
      <trkpt lat="50.37068" lon="2.99405">
        <ele>26.09</ele>
        <time>2015-05-10T15:47:58Z</time>
      </trkpt>
      <trkpt lat="50.37059" lon="2.99371">
        <ele>26.09</ele>
        <time>2015-05-10T15:48:15Z</time>
      </trkpt>
      <trkpt lat="50.37053" lon="2.99351">
        <ele>26.09</ele>
        <time>2015-05-10T15:48:27Z</time>
      </trkpt>
      <trkpt lat="50.37045" lon="2.9932">
        <ele>26.09</ele>
        <time>2015-05-10T15:48:41Z</time>
      </trkpt>
      <trkpt lat="50.37029" lon="2.99311">
        <ele>26.09</ele>
        <time>2015-05-10T15:48:54Z</time>
      </trkpt>
      <trkpt lat="50.37009" lon="2.993">
        <ele>26.09</ele>
        <time>2015-05-10T15:49:10Z</time>
      </trkpt>
      <trkpt lat="50.36996" lon="2.99284">
        <ele>26.57</ele>
        <time>2015-05-10T15:49:23Z</time>
      </trkpt>
      <trkpt lat="50.36996" lon="2.99273">
        <ele>26.57</ele>
        <time>2015-05-10T15:49:29Z</time>
      </trkpt>
      <trkpt lat="50.36999" lon="2.99262">
        <ele>27.05</ele>
        <time>2015-05-10T15:49:41Z</time>
      </trkpt>
      <trkpt lat="50.36999" lon="2.99258">
        <ele>27.05</ele>
        <time>2015-05-10T15:49:55Z</time>
      </trkpt>
      <trkpt lat="50.37001" lon="2.99263">
        <ele>27.53</ele>
        <time>2015-05-10T15:50:08Z</time>
      </trkpt>
      <trkpt lat="50.37002" lon="2.9926">
        <ele>27.53</ele>
        <time>2015-05-10T15:50:22Z</time>
      </trkpt>
      <trkpt lat="50.37" lon="2.99263">
        <ele>27.53</ele>
        <time>2015-05-10T15:50:35Z</time>
      </trkpt>
      <trkpt lat="50.36998" lon="2.99263">
        <ele>27.53</ele>
        <time>2015-05-10T15:50:50Z</time>
      </trkpt>
      <trkpt lat="50.36998" lon="2.99263">
        <ele>27.53</ele>
        <time>2015-05-10T15:51:20Z</time>
      </trkpt>
      <trkpt lat="50.36998" lon="2.99262">
        <ele>27.53</ele>
        <time>2015-05-10T15:51:42Z</time>
      </trkpt>
      <trkpt lat="50.36998" lon="2.99262">
        <ele>27.53</ele>
        <time>2015-05-10T15:51:56Z</time>
      </trkpt>
      <trkpt lat="50.36998" lon="2.99262">
        <ele>27.53</ele>
        <time>2015-05-10T15:52:16Z</time>
      </trkpt>
      <trkpt lat="50.36997" lon="2.99264">
        <ele>27.53</ele>
        <time>2015-05-10T15:52:36Z</time>
      </trkpt>
      <trkpt lat="50.36997" lon="2.9926">
        <ele>27.53</ele>
        <time>2015-05-10T15:52:54Z</time>
      </trkpt>
      <trkpt lat="50.36997" lon="2.99261">
        <ele>27.53</ele>
        <time>2015-05-10T15:53:06Z</time>
      </trkpt>
      <trkpt lat="50.36998" lon="2.99261">
        <ele>27.53</ele>
        <time>2015-05-10T15:53:29Z</time>
      </trkpt>
      <trkpt lat="50.36999" lon="2.99261">
        <ele>27.53</ele>
        <time>2015-05-10T15:53:53Z</time>
      </trkpt>
      <trkpt lat="50.37001" lon="2.99262">
        <ele>27.53</ele>
        <time>2015-05-10T15:54:21Z</time>
      </trkpt>
      <trkpt lat="50.37" lon="2.99262">
        <ele>27.53</ele>
        <time>2015-05-10T15:54:38Z</time>
      </trkpt>
      <trkpt lat="50.36999" lon="2.99288">
        <ele>27.53</ele>
        <time>2015-05-10T15:54:53Z</time>
      </trkpt>
      <trkpt lat="50.37023" lon="2.99308">
        <ele>27.53</ele>
        <time>2015-05-10T15:55:16Z</time>
      </trkpt>
      <trkpt lat="50.37043" lon="2.99318">
        <ele>27.53</ele>
        <time>2015-05-10T15:55:33Z</time>
      </trkpt>
      <trkpt lat="50.37052" lon="2.99347">
        <ele>27.53</ele>
        <time>2015-05-10T15:55:51Z</time>
      </trkpt>
      <trkpt lat="50.37055" lon="2.99361">
        <ele>27.53</ele>
        <time>2015-05-10T15:55:59Z</time>
      </trkpt>
      <trkpt lat="50.37059" lon="2.99382">
        <ele>27.53</ele>
        <time>2015-05-10T15:56:13Z</time>
      </trkpt>
      <trkpt lat="50.3706" lon="2.99383">
        <ele>27.53</ele>
        <time>2015-05-10T15:56:36Z</time>
      </trkpt>
      <trkpt lat="50.37063" lon="2.99386">
        <ele>27.53</ele>
        <time>2015-05-10T15:56:46Z</time>
      </trkpt>
      <trkpt lat="50.37065" lon="2.99397">
        <ele>27.53</ele>
        <time>2015-05-10T15:56:51Z</time>
      </trkpt>
      <trkpt lat="50.37067" lon="2.99406">
        <ele>27.53</ele>
        <time>2015-05-10T15:56:56Z</time>
      </trkpt>
      <trkpt lat="50.3707" lon="2.99425">
        <ele>27.53</ele>
        <time>2015-05-10T15:57:07Z</time>
      </trkpt>
      <trkpt lat="50.37072" lon="2.9943">
        <ele>27.53</ele>
        <time>2015-05-10T15:57:10Z</time>
      </trkpt>
      <trkpt lat="50.37073" lon="2.99437">
        <ele>27.53</ele>
        <time>2015-05-10T15:57:14Z</time>
      </trkpt>
      <trkpt lat="50.37078" lon="2.99453">
        <ele>27.53</ele>
        <time>2015-05-10T15:57:22Z</time>
      </trkpt>
      <trkpt lat="50.37085" lon="2.99478">
        <ele>27.53</ele>
        <time>2015-05-10T15:57:35Z</time>
      </trkpt>
      <trkpt lat="50.37089" lon="2.99491">
        <ele>27.53</ele>
        <time>2015-05-10T15:57:42Z</time>
      </trkpt>
      <trkpt lat="50.3709" lon="2.99499">
        <ele>27.53</ele>
        <time>2015-05-10T15:57:46Z</time>
      </trkpt>
      <trkpt lat="50.3709" lon="2.99504">
        <ele>27.53</ele>
        <time>2015-05-10T15:57:48Z</time>
      </trkpt>
      <trkpt lat="50.37095" lon="2.99533">
        <ele>27.53</ele>
        <time>2015-05-10T15:58:04Z</time>
      </trkpt>
      <trkpt lat="50.37102" lon="2.99555">
        <ele>27.53</ele>
        <time>2015-05-10T15:58:17Z</time>
      </trkpt>
      <trkpt lat="50.37107" lon="2.99578">
        <ele>27.53</ele>
        <time>2015-05-10T15:58:31Z</time>
      </trkpt>
      <trkpt lat="50.37109" lon="2.9958">
        <ele>27.53</ele>
        <time>2015-05-10T15:58:33Z</time>
      </trkpt>
      <trkpt lat="50.37114" lon="2.99591">
        <ele>27.05</ele>
        <time>2015-05-10T15:58:40Z</time>
      </trkpt>
      <trkpt lat="50.37116" lon="2.99597">
        <ele>27.05</ele>
        <time>2015-05-10T15:58:43Z</time>
      </trkpt>
      <trkpt lat="50.37122" lon="2.99612">
        <ele>27.05</ele>
        <time>2015-05-10T15:58:56Z</time>
      </trkpt>
      <trkpt lat="50.37123" lon="2.99614">
        <ele>27.05</ele>
        <time>2015-05-10T15:59:01Z</time>
      </trkpt>
      <trkpt lat="50.3713" lon="2.99625">
        <ele>27.05</ele>
        <time>2015-05-10T15:59:07Z</time>
      </trkpt>
      <trkpt lat="50.37138" lon="2.99649">
        <ele>27.05</ele>
        <time>2015-05-10T15:59:19Z</time>
      </trkpt>
      <trkpt lat="50.37142" lon="2.99658">
        <ele>27.05</ele>
        <time>2015-05-10T15:59:24Z</time>
      </trkpt>
      <trkpt lat="50.37146" lon="2.99667">
        <ele>25.61</ele>
        <time>2015-05-10T15:59:29Z</time>
      </trkpt>
      <trkpt lat="50.37156" lon="2.99691">
        <ele>25.61</ele>
        <time>2015-05-10T15:59:42Z</time>
      </trkpt>
      <trkpt lat="50.37163" lon="2.99711">
        <ele>25.61</ele>
        <time>2015-05-10T15:59:55Z</time>
      </trkpt>
      <trkpt lat="50.37173" lon="2.99736">
        <ele>25.61</ele>
        <time>2015-05-10T16:00:10Z</time>
      </trkpt>
      <trkpt lat="50.37177" lon="2.99746">
        <ele>25.61</ele>
        <time>2015-05-10T16:00:16Z</time>
      </trkpt>
      <trkpt lat="50.37188" lon="2.99773">
        <ele>26.57</ele>
        <time>2015-05-10T16:00:29Z</time>
      </trkpt>
      <trkpt lat="50.37192" lon="2.9978">
        <ele>26.57</ele>
        <time>2015-05-10T16:00:33Z</time>
      </trkpt>
      <trkpt lat="50.37201" lon="2.99787">
        <ele>26.57</ele>
        <time>2015-05-10T16:00:45Z</time>
      </trkpt>
      <trkpt lat="50.37203" lon="2.99785">
        <ele>26.57</ele>
        <time>2015-05-10T16:00:48Z</time>
      </trkpt>
      <trkpt lat="50.37208" lon="2.99781">
        <ele>26.57</ele>
        <time>2015-05-10T16:00:54Z</time>
      </trkpt>
      <trkpt lat="50.37213" lon="2.99778">
        <ele>26.57</ele>
        <time>2015-05-10T16:01:01Z</time>
      </trkpt>
      <trkpt lat="50.37217" lon="2.99778">
        <ele>26.57</ele>
        <time>2015-05-10T16:01:04Z</time>
      </trkpt>
      <trkpt lat="50.37237" lon="2.99778">
        <ele>27.05</ele>
        <time>2015-05-10T16:01:17Z</time>
      </trkpt>
      <trkpt lat="50.37247" lon="2.99793">
        <ele>27.53</ele>
        <time>2015-05-10T16:01:27Z</time>
      </trkpt>
      <trkpt lat="50.37256" lon="2.99812">
        <ele>27.53</ele>
        <time>2015-05-10T16:01:39Z</time>
      </trkpt>
      <trkpt lat="50.37262" lon="2.99834">
        <ele>27.53</ele>
        <time>2015-05-10T16:01:51Z</time>
      </trkpt>
      <trkpt lat="50.37264" lon="2.99842">
        <ele>27.53</ele>
        <time>2015-05-10T16:01:56Z</time>
      </trkpt>
      <trkpt lat="50.37265" lon="2.99859">
        <ele>27.53</ele>
        <time>2015-05-10T16:02:05Z</time>
      </trkpt>
      <trkpt lat="50.37272" lon="2.99876">
        <ele>27.53</ele>
        <time>2015-05-10T16:02:15Z</time>
      </trkpt>
      <trkpt lat="50.37281" lon="2.99906">
        <ele>27.05</ele>
        <time>2015-05-10T16:02:30Z</time>
      </trkpt>
      <trkpt lat="50.37284" lon="2.99925">
        <ele>27.05</ele>
        <time>2015-05-10T16:02:41Z</time>
      </trkpt>
      <trkpt lat="50.37293" lon="2.99936">
        <ele>27.05</ele>
        <time>2015-05-10T16:02:52Z</time>
      </trkpt>
      <trkpt lat="50.37296" lon="2.99937">
        <ele>27.53</ele>
        <time>2015-05-10T16:02:54Z</time>
      </trkpt>
      <trkpt lat="50.3731" lon="2.99927">
        <ele>27.53</ele>
        <time>2015-05-10T16:03:05Z</time>
      </trkpt>
      <trkpt lat="50.37313" lon="2.99926">
        <ele>28.02</ele>
        <time>2015-05-10T16:03:07Z</time>
      </trkpt>
      <trkpt lat="50.37331" lon="2.99921">
        <ele>28.5</ele>
        <time>2015-05-10T16:03:19Z</time>
      </trkpt>
      <trkpt lat="50.37336" lon="2.99919">
        <ele>28.5</ele>
        <time>2015-05-10T16:03:23Z</time>
      </trkpt>
      <trkpt lat="50.37341" lon="2.99918">
        <ele>28.5</ele>
        <time>2015-05-10T16:03:27Z</time>
      </trkpt>
      <trkpt lat="50.37354" lon="2.99906">
        <ele>29.46</ele>
        <time>2015-05-10T16:03:39Z</time>
      </trkpt>
      <trkpt lat="50.3737" lon="2.9991">
        <ele>29.94</ele>
        <time>2015-05-10T16:03:52Z</time>
      </trkpt>
      <trkpt lat="50.37371" lon="2.99912">
        <ele>29.94</ele>
        <time>2015-05-10T16:03:53Z</time>
      </trkpt>
      <trkpt lat="50.37372" lon="2.99926">
        <ele>29.94</ele>
        <time>2015-05-10T16:04:00Z</time>
      </trkpt>
      <trkpt lat="50.37373" lon="2.99938">
        <ele>29.46</ele>
        <time>2015-05-10T16:04:06Z</time>
      </trkpt>
      <trkpt lat="50.37376" lon="2.99956">
        <ele>30.42</ele>
        <time>2015-05-10T16:04:16Z</time>
      </trkpt>
      <trkpt lat="50.37379" lon="2.9997">
        <ele>30.42</ele>
        <time>2015-05-10T16:04:24Z</time>
      </trkpt>
      <trkpt lat="50.37382" lon="2.99994">
        <ele>28.98</ele>
        <time>2015-05-10T16:04:37Z</time>
      </trkpt>
      <trkpt lat="50.37389" lon="3.00019">
        <ele>28.98</ele>
        <time>2015-05-10T16:04:50Z</time>
      </trkpt>
      <trkpt lat="50.3739" lon="3.00022">
        <ele>28.98</ele>
        <time>2015-05-10T16:04:52Z</time>
      </trkpt>
      <trkpt lat="50.37392" lon="3.00034">
        <ele>28.98</ele>
        <time>2015-05-10T16:04:58Z</time>
      </trkpt>
      <trkpt lat="50.37394" lon="3.00042">
        <ele>28.98</ele>
        <time>2015-05-10T16:05:02Z</time>
      </trkpt>
      <trkpt lat="50.37394" lon="3.00051">
        <ele>28.98</ele>
        <time>2015-05-10T16:05:07Z</time>
      </trkpt>
      <trkpt lat="50.37396" lon="3.00075">
        <ele>28.98</ele>
        <time>2015-05-10T16:05:19Z</time>
      </trkpt>
      <trkpt lat="50.37399" lon="3.00093">
        <ele>28.98</ele>
        <time>2015-05-10T16:05:28Z</time>
      </trkpt>
      <trkpt lat="50.374" lon="3.00096">
        <ele>28.98</ele>
        <time>2015-05-10T16:05:30Z</time>
      </trkpt>
      <trkpt lat="50.37403" lon="3.00113">
        <ele>28.98</ele>
        <time>2015-05-10T16:05:39Z</time>
      </trkpt>
      <trkpt lat="50.37403" lon="3.00115">
        <ele>28.98</ele>
        <time>2015-05-10T16:05:41Z</time>
      </trkpt>
      <trkpt lat="50.37406" lon="3.00128">
        <ele>28.5</ele>
        <time>2015-05-10T16:05:48Z</time>
      </trkpt>
      <trkpt lat="50.37409" lon="3.00145">
        <ele>28.5</ele>
        <time>2015-05-10T16:05:56Z</time>
      </trkpt>
      <trkpt lat="50.37409" lon="3.00149">
        <ele>28.5</ele>
        <time>2015-05-10T16:05:58Z</time>
      </trkpt>
      <trkpt lat="50.37411" lon="3.00157">
        <ele>28.5</ele>
        <time>2015-05-10T16:06:02Z</time>
      </trkpt>
      <trkpt lat="50.37415" lon="3.00178">
        <ele>28.5</ele>
        <time>2015-05-10T16:06:14Z</time>
      </trkpt>
      <trkpt lat="50.37418" lon="3.00196">
        <ele>28.5</ele>
        <time>2015-05-10T16:06:26Z</time>
      </trkpt>
      <trkpt lat="50.37417" lon="3.00201">
        <ele>28.5</ele>
        <time>2015-05-10T16:06:46Z</time>
      </trkpt>
      <trkpt lat="50.37419" lon="3.00202">
        <ele>28.5</ele>
        <time>2015-05-10T16:07:13Z</time>
      </trkpt>
      <trkpt lat="50.37418" lon="3.00202">
        <ele>29.94</ele>
        <time>2015-05-10T16:07:26Z</time>
      </trkpt>
    </trkseg>
  </trk>
</gpx>